<?xml version="1.0" encoding="UTF-8" standalone="no" ?>
<gpx xmlns="http://www.topografix.com/GPX/1/1" xmlns:xsi="http://www.w3.org/2001/XMLSchema-instance" xsi:schemaLocation="http://www.topografix.com/GPX/1/1 http://www.topografix.com/GPX/1/1/gpx.xsd" version="1.1" creator="VisuGPX - https://www.visugpx.com">
  <metadata>
    <name>Corse Désert des Agriates - Cala di a Recisa depuis plage d Ostriconi</name>
    <desc><![CDATA[Balisage farfelu]]></desc>
  </metadata>
  <trk>
    <name><![CDATA[ACTIVE LOG 003]]></name>
    <trkseg>
      <trkpt lat="42.65875" lon="9.05831">
        <ele>11.673218</ele>
        <time>2011-09-11T07:54:04Z</time>
      </trkpt>
      <trkpt lat="42.65874" lon="9.05832">
        <ele>12.153809</ele>
        <time>2011-09-11T07:54:05Z</time>
      </trkpt>
      <trkpt lat="42.65871" lon="9.05841">
        <ele>15.518433</ele>
        <time>2011-09-11T07:54:13Z</time>
      </trkpt>
      <trkpt lat="42.6587" lon="9.05842">
        <ele>15.518433</ele>
        <time>2011-09-11T07:54:14Z</time>
      </trkpt>
      <trkpt lat="42.65867" lon="9.05846">
        <ele>17.921753</ele>
        <time>2011-09-11T07:54:33Z</time>
      </trkpt>
      <trkpt lat="42.65864" lon="9.0585">
        <ele>20.805664</ele>
        <time>2011-09-11T07:54:40Z</time>
      </trkpt>
      <trkpt lat="42.65864" lon="9.05851">
        <ele>21.286377</ele>
        <time>2011-09-11T07:54:41Z</time>
      </trkpt>
      <trkpt lat="42.65858" lon="9.05863">
        <ele>24.651001</ele>
        <time>2011-09-11T07:54:49Z</time>
      </trkpt>
      <trkpt lat="42.65844" lon="9.05886">
        <ele>27.534912</ele>
        <time>2011-09-11T07:55:06Z</time>
      </trkpt>
      <trkpt lat="42.65831" lon="9.05919">
        <ele>28.496216</ele>
        <time>2011-09-11T07:55:31Z</time>
      </trkpt>
      <trkpt lat="42.65831" lon="9.05929">
        <ele>27.534912</ele>
        <time>2011-09-11T07:55:44Z</time>
      </trkpt>
      <trkpt lat="42.65834" lon="9.05939">
        <ele>26.092896</ele>
        <time>2011-09-11T07:56:00Z</time>
      </trkpt>
      <trkpt lat="42.65838" lon="9.0595">
        <ele>24.651001</ele>
        <time>2011-09-11T07:56:15Z</time>
      </trkpt>
      <trkpt lat="42.65842" lon="9.05958">
        <ele>22.247559</ele>
        <time>2011-09-11T07:56:30Z</time>
      </trkpt>
      <trkpt lat="42.65844" lon="9.05963">
        <ele>20.805664</ele>
        <time>2011-09-11T07:56:42Z</time>
      </trkpt>
      <trkpt lat="42.65851" lon="9.05965">
        <ele>17.921753</ele>
        <time>2011-09-11T07:56:56Z</time>
      </trkpt>
      <trkpt lat="42.65856" lon="9.05966">
        <ele>15.999023</ele>
        <time>2011-09-11T07:57:09Z</time>
      </trkpt>
      <trkpt lat="42.65856" lon="9.05973">
        <ele>14.076416</ele>
        <time>2011-09-11T07:57:21Z</time>
      </trkpt>
      <trkpt lat="42.65855" lon="9.0598">
        <ele>13.115112</ele>
        <time>2011-09-11T07:57:34Z</time>
      </trkpt>
      <trkpt lat="42.65861" lon="9.05974">
        <ele>10.231201</ele>
        <time>2011-09-11T07:57:47Z</time>
      </trkpt>
      <trkpt lat="42.65868" lon="9.05966">
        <ele>9.269897</ele>
        <time>2011-09-11T07:58:02Z</time>
      </trkpt>
      <trkpt lat="42.65871" lon="9.0596">
        <ele>6.385864</ele>
        <time>2011-09-11T07:58:16Z</time>
      </trkpt>
      <trkpt lat="42.65873" lon="9.05951">
        <ele>5.424561</ele>
        <time>2011-09-11T07:58:29Z</time>
      </trkpt>
      <trkpt lat="42.65875" lon="9.05944">
        <ele>4.463257</ele>
        <time>2011-09-11T07:58:44Z</time>
      </trkpt>
      <trkpt lat="42.65875" lon="9.05941">
        <ele>2.060059</ele>
        <time>2011-09-11T07:58:56Z</time>
      </trkpt>
      <trkpt lat="42.65878" lon="9.05935">
        <ele>0.618042</ele>
        <time>2011-09-11T07:59:11Z</time>
      </trkpt>
      <trkpt lat="42.65882" lon="9.05922">
        <ele>-1.785278</ele>
        <time>2011-09-11T07:59:27Z</time>
      </trkpt>
      <trkpt lat="42.65887" lon="9.05908">
        <ele>-1.304688</ele>
        <time>2011-09-11T07:59:41Z</time>
      </trkpt>
      <trkpt lat="42.65892" lon="9.05897">
        <ele>-1.304688</ele>
        <time>2011-09-11T07:59:54Z</time>
      </trkpt>
      <trkpt lat="42.65896" lon="9.05893">
        <ele>-1.304688</ele>
        <time>2011-09-11T08:00:00Z</time>
      </trkpt>
      <trkpt lat="42.65897" lon="9.0589">
        <ele>-1.785278</ele>
        <time>2011-09-11T08:00:02Z</time>
      </trkpt>
      <trkpt lat="42.65905" lon="9.05873">
        <ele>-1.304688</ele>
        <time>2011-09-11T08:00:17Z</time>
      </trkpt>
      <trkpt lat="42.65906" lon="9.05872">
        <ele>-0.343384</ele>
        <time>2011-09-11T08:00:18Z</time>
      </trkpt>
      <trkpt lat="42.65921" lon="9.05866">
        <ele>-0.824097</ele>
        <time>2011-09-11T08:00:33Z</time>
      </trkpt>
      <trkpt lat="42.65932" lon="9.05863">
        <ele>-0.343384</ele>
        <time>2011-09-11T08:00:43Z</time>
      </trkpt>
      <trkpt lat="42.65949" lon="9.05865">
        <ele>-0.824097</ele>
        <time>2011-09-11T08:01:01Z</time>
      </trkpt>
      <trkpt lat="42.65959" lon="9.05872">
        <ele>-1.785278</ele>
        <time>2011-09-11T08:01:13Z</time>
      </trkpt>
      <trkpt lat="42.65978" lon="9.05888">
        <ele>-0.343384</ele>
        <time>2011-09-11T08:01:35Z</time>
      </trkpt>
      <trkpt lat="42.65999" lon="9.05909">
        <ele>-0.824097</ele>
        <time>2011-09-11T08:01:59Z</time>
      </trkpt>
      <trkpt lat="42.66013" lon="9.05929">
        <ele>-0.824097</ele>
        <time>2011-09-11T08:02:18Z</time>
      </trkpt>
      <trkpt lat="42.66016" lon="9.05933">
        <ele>-1.304688</ele>
        <time>2011-09-11T08:02:22Z</time>
      </trkpt>
      <trkpt lat="42.66037" lon="9.05956">
        <ele>0.137451</ele>
        <time>2011-09-11T08:02:48Z</time>
      </trkpt>
      <trkpt lat="42.66044" lon="9.05964">
        <ele>-0.343384</ele>
        <time>2011-09-11T08:03:00Z</time>
      </trkpt>
      <trkpt lat="42.66052" lon="9.0597">
        <ele>-0.824097</ele>
        <time>2011-09-11T08:03:16Z</time>
      </trkpt>
      <trkpt lat="42.66072" lon="9.05991">
        <ele>0.618042</ele>
        <time>2011-09-11T08:03:38Z</time>
      </trkpt>
      <trkpt lat="42.66095" lon="9.06007">
        <ele>-0.343384</ele>
        <time>2011-09-11T08:04:01Z</time>
      </trkpt>
      <trkpt lat="42.66119" lon="9.06019">
        <ele>0.137451</ele>
        <time>2011-09-11T08:04:25Z</time>
      </trkpt>
      <trkpt lat="42.6614" lon="9.06032">
        <ele>0.137451</ele>
        <time>2011-09-11T08:04:46Z</time>
      </trkpt>
      <trkpt lat="42.6616" lon="9.06044">
        <ele>0.137451</ele>
        <time>2011-09-11T08:05:07Z</time>
      </trkpt>
      <trkpt lat="42.6618" lon="9.06041">
        <ele>-1.304688</ele>
        <time>2011-09-11T08:05:27Z</time>
      </trkpt>
      <trkpt lat="42.6618" lon="9.06041">
        <ele>-1.304688</ele>
        <time>2011-09-11T08:05:28Z</time>
      </trkpt>
      <trkpt lat="42.66203" lon="9.06049">
        <ele>-1.304688</ele>
        <time>2011-09-11T08:05:48Z</time>
      </trkpt>
      <trkpt lat="42.66232" lon="9.06063">
        <ele>-1.785278</ele>
        <time>2011-09-11T08:06:13Z</time>
      </trkpt>
      <trkpt lat="42.66258" lon="9.06073">
        <ele>-0.824097</ele>
        <time>2011-09-11T08:06:36Z</time>
      </trkpt>
      <trkpt lat="42.66284" lon="9.06086">
        <ele>-0.824097</ele>
        <time>2011-09-11T08:06:59Z</time>
      </trkpt>
      <trkpt lat="42.66299" lon="9.06099">
        <ele>-0.824097</ele>
        <time>2011-09-11T08:07:15Z</time>
      </trkpt>
      <trkpt lat="42.6632" lon="9.06112">
        <ele>-1.304688</ele>
        <time>2011-09-11T08:07:35Z</time>
      </trkpt>
      <trkpt lat="42.66348" lon="9.06124">
        <ele>-1.304688</ele>
        <time>2011-09-11T08:07:59Z</time>
      </trkpt>
      <trkpt lat="42.66373" lon="9.06131">
        <ele>-1.304688</ele>
        <time>2011-09-11T08:08:21Z</time>
      </trkpt>
      <trkpt lat="42.66376" lon="9.06132">
        <ele>-0.824097</ele>
        <time>2011-09-11T08:08:23Z</time>
      </trkpt>
      <trkpt lat="42.66399" lon="9.0614">
        <ele>-1.304688</ele>
        <time>2011-09-11T08:08:44Z</time>
      </trkpt>
      <trkpt lat="42.66416" lon="9.06155">
        <ele>-0.343384</ele>
        <time>2011-09-11T08:09:03Z</time>
      </trkpt>
      <trkpt lat="42.66435" lon="9.06173">
        <ele>0.137451</ele>
        <time>2011-09-11T08:09:25Z</time>
      </trkpt>
      <trkpt lat="42.66453" lon="9.06178">
        <ele>-0.343384</ele>
        <time>2011-09-11T08:09:42Z</time>
      </trkpt>
      <trkpt lat="42.66478" lon="9.06184">
        <ele>-0.343384</ele>
        <time>2011-09-11T08:10:06Z</time>
      </trkpt>
      <trkpt lat="42.66491" lon="9.06189">
        <ele>-0.343384</ele>
        <time>2011-09-11T08:10:23Z</time>
      </trkpt>
      <trkpt lat="42.66497" lon="9.06192">
        <ele>-0.343384</ele>
        <time>2011-09-11T08:10:40Z</time>
      </trkpt>
      <trkpt lat="42.6652" lon="9.06191">
        <ele>-0.343384</ele>
        <time>2011-09-11T08:11:02Z</time>
      </trkpt>
      <trkpt lat="42.66546" lon="9.06189">
        <ele>-0.343384</ele>
        <time>2011-09-11T08:11:25Z</time>
      </trkpt>
      <trkpt lat="42.66568" lon="9.06183">
        <ele>1.098633</ele>
        <time>2011-09-11T08:11:47Z</time>
      </trkpt>
      <trkpt lat="42.66582" lon="9.06178">
        <ele>3.982666</ele>
        <time>2011-09-11T08:12:02Z</time>
      </trkpt>
      <trkpt lat="42.66588" lon="9.06167">
        <ele>5.905273</ele>
        <time>2011-09-11T08:12:17Z</time>
      </trkpt>
      <trkpt lat="42.66591" lon="9.06166">
        <ele>6.385864</ele>
        <time>2011-09-11T08:12:20Z</time>
      </trkpt>
      <trkpt lat="42.66608" lon="9.06157">
        <ele>5.905273</ele>
        <time>2011-09-11T08:12:37Z</time>
      </trkpt>
      <trkpt lat="42.66623" lon="9.06146">
        <ele>5.424561</ele>
        <time>2011-09-11T08:12:55Z</time>
      </trkpt>
      <trkpt lat="42.66626" lon="9.06145">
        <ele>4.463257</ele>
        <time>2011-09-11T08:12:58Z</time>
      </trkpt>
      <trkpt lat="42.6663" lon="9.06143">
        <ele>3.501953</ele>
        <time>2011-09-11T08:13:13Z</time>
      </trkpt>
      <trkpt lat="42.66629" lon="9.06143">
        <ele>3.501953</ele>
        <time>2011-09-11T08:13:32Z</time>
      </trkpt>
      <trkpt lat="42.66631" lon="9.06144">
        <ele>4.463257</ele>
        <time>2011-09-11T08:13:34Z</time>
      </trkpt>
      <trkpt lat="42.66636" lon="9.06145">
        <ele>6.385864</ele>
        <time>2011-09-11T08:13:40Z</time>
      </trkpt>
      <trkpt lat="42.66638" lon="9.06146">
        <ele>6.866455</ele>
        <time>2011-09-11T08:13:43Z</time>
      </trkpt>
      <trkpt lat="42.66645" lon="9.06154">
        <ele>9.269897</ele>
        <time>2011-09-11T08:13:54Z</time>
      </trkpt>
      <trkpt lat="42.66655" lon="9.06163">
        <ele>10.231201</ele>
        <time>2011-09-11T08:14:10Z</time>
      </trkpt>
      <trkpt lat="42.66656" lon="9.06163">
        <ele>9.75061</ele>
        <time>2011-09-11T08:14:11Z</time>
      </trkpt>
      <trkpt lat="42.66658" lon="9.06163">
        <ele>10.711792</ele>
        <time>2011-09-11T08:14:13Z</time>
      </trkpt>
      <trkpt lat="42.66664" lon="9.0617">
        <ele>9.75061</ele>
        <time>2011-09-11T08:14:21Z</time>
      </trkpt>
      <trkpt lat="42.66677" lon="9.06173">
        <ele>9.269897</ele>
        <time>2011-09-11T08:14:35Z</time>
      </trkpt>
      <trkpt lat="42.66686" lon="9.06164">
        <ele>11.673218</ele>
        <time>2011-09-11T08:14:50Z</time>
      </trkpt>
      <trkpt lat="42.66689" lon="9.06153">
        <ele>13.595825</ele>
        <time>2011-09-11T08:15:01Z</time>
      </trkpt>
      <trkpt lat="42.66695" lon="9.06135">
        <ele>15.03772</ele>
        <time>2011-09-11T08:15:20Z</time>
      </trkpt>
      <trkpt lat="42.66702" lon="9.06133">
        <ele>15.999023</ele>
        <time>2011-09-11T08:15:34Z</time>
      </trkpt>
      <trkpt lat="42.66701" lon="9.06125">
        <ele>15.518433</ele>
        <time>2011-09-11T08:15:43Z</time>
      </trkpt>
      <trkpt lat="42.66715" lon="9.06123">
        <ele>14.076416</ele>
        <time>2011-09-11T08:15:56Z</time>
      </trkpt>
      <trkpt lat="42.66723" lon="9.06112">
        <ele>12.153809</ele>
        <time>2011-09-11T08:16:10Z</time>
      </trkpt>
      <trkpt lat="42.66728" lon="9.06104">
        <ele>9.269897</ele>
        <time>2011-09-11T08:16:22Z</time>
      </trkpt>
      <trkpt lat="42.66735" lon="9.06097">
        <ele>7.827881</ele>
        <time>2011-09-11T08:16:37Z</time>
      </trkpt>
      <trkpt lat="42.66737" lon="9.06091">
        <ele>6.866455</ele>
        <time>2011-09-11T08:16:44Z</time>
      </trkpt>
      <trkpt lat="42.66744" lon="9.06065">
        <ele>4.943848</ele>
        <time>2011-09-11T08:17:02Z</time>
      </trkpt>
      <trkpt lat="42.66747" lon="9.06037">
        <ele>4.463257</ele>
        <time>2011-09-11T08:17:20Z</time>
      </trkpt>
      <trkpt lat="42.66751" lon="9.06017">
        <ele>4.463257</ele>
        <time>2011-09-11T08:17:34Z</time>
      </trkpt>
      <trkpt lat="42.66763" lon="9.05996">
        <ele>5.905273</ele>
        <time>2011-09-11T08:17:52Z</time>
      </trkpt>
      <trkpt lat="42.66773" lon="9.05976">
        <ele>6.385864</ele>
        <time>2011-09-11T08:18:08Z</time>
      </trkpt>
      <trkpt lat="42.66788" lon="9.05954">
        <ele>6.385864</ele>
        <time>2011-09-11T08:18:27Z</time>
      </trkpt>
      <trkpt lat="42.66805" lon="9.05937">
        <ele>5.424561</ele>
        <time>2011-09-11T08:18:46Z</time>
      </trkpt>
      <trkpt lat="42.66822" lon="9.05922">
        <ele>5.905273</ele>
        <time>2011-09-11T08:19:06Z</time>
      </trkpt>
      <trkpt lat="42.66844" lon="9.05908">
        <ele>6.385864</ele>
        <time>2011-09-11T08:19:30Z</time>
      </trkpt>
      <trkpt lat="42.66856" lon="9.05885">
        <ele>7.347168</ele>
        <time>2011-09-11T08:19:51Z</time>
      </trkpt>
      <trkpt lat="42.66867" lon="9.05857">
        <ele>7.347168</ele>
        <time>2011-09-11T08:20:15Z</time>
      </trkpt>
      <trkpt lat="42.66882" lon="9.05832">
        <ele>8.308594</ele>
        <time>2011-09-11T08:20:37Z</time>
      </trkpt>
      <trkpt lat="42.66898" lon="9.05809">
        <ele>11.192505</ele>
        <time>2011-09-11T08:20:59Z</time>
      </trkpt>
      <trkpt lat="42.66908" lon="9.05797">
        <ele>12.634399</ele>
        <time>2011-09-11T08:21:12Z</time>
      </trkpt>
      <trkpt lat="42.66921" lon="9.058">
        <ele>12.634399</ele>
        <time>2011-09-11T08:21:25Z</time>
      </trkpt>
      <trkpt lat="42.6693" lon="9.05809">
        <ele>12.153809</ele>
        <time>2011-09-11T08:21:42Z</time>
      </trkpt>
      <trkpt lat="42.66945" lon="9.05813">
        <ele>11.673218</ele>
        <time>2011-09-11T08:22:08Z</time>
      </trkpt>
      <trkpt lat="42.66968" lon="9.0583">
        <ele>11.673218</ele>
        <time>2011-09-11T08:22:28Z</time>
      </trkpt>
      <trkpt lat="42.66984" lon="9.05851">
        <ele>11.673218</ele>
        <time>2011-09-11T08:22:47Z</time>
      </trkpt>
      <trkpt lat="42.66998" lon="9.05878">
        <ele>9.269897</ele>
        <time>2011-09-11T08:23:10Z</time>
      </trkpt>
      <trkpt lat="42.67011" lon="9.05888">
        <ele>9.269897</ele>
        <time>2011-09-11T08:23:23Z</time>
      </trkpt>
      <trkpt lat="42.67038" lon="9.05897">
        <ele>9.269897</ele>
        <time>2011-09-11T08:23:44Z</time>
      </trkpt>
      <trkpt lat="42.67068" lon="9.0592">
        <ele>7.827881</ele>
        <time>2011-09-11T08:24:12Z</time>
      </trkpt>
      <trkpt lat="42.67076" lon="9.05944">
        <ele>8.789185</ele>
        <time>2011-09-11T08:24:28Z</time>
      </trkpt>
      <trkpt lat="42.67078" lon="9.05962">
        <ele>8.789185</ele>
        <time>2011-09-11T08:24:39Z</time>
      </trkpt>
      <trkpt lat="42.67079" lon="9.05971">
        <ele>8.789185</ele>
        <time>2011-09-11T08:24:44Z</time>
      </trkpt>
      <trkpt lat="42.67089" lon="9.05992">
        <ele>10.231201</ele>
        <time>2011-09-11T08:25:01Z</time>
      </trkpt>
      <trkpt lat="42.67104" lon="9.06014">
        <ele>10.711792</ele>
        <time>2011-09-11T08:25:23Z</time>
      </trkpt>
      <trkpt lat="42.67108" lon="9.0602">
        <ele>10.711792</ele>
        <time>2011-09-11T08:25:29Z</time>
      </trkpt>
      <trkpt lat="42.67112" lon="9.06023">
        <ele>10.711792</ele>
        <time>2011-09-11T08:25:33Z</time>
      </trkpt>
      <trkpt lat="42.67119" lon="9.06035">
        <ele>8.308594</ele>
        <time>2011-09-11T08:25:48Z</time>
      </trkpt>
      <trkpt lat="42.67125" lon="9.06046">
        <ele>5.905273</ele>
        <time>2011-09-11T08:26:02Z</time>
      </trkpt>
      <trkpt lat="42.67134" lon="9.06056">
        <ele>3.982666</ele>
        <time>2011-09-11T08:26:16Z</time>
      </trkpt>
      <trkpt lat="42.67135" lon="9.06057">
        <ele>3.982666</ele>
        <time>2011-09-11T08:26:17Z</time>
      </trkpt>
      <trkpt lat="42.67139" lon="9.0606">
        <ele>3.02124</ele>
        <time>2011-09-11T08:26:23Z</time>
      </trkpt>
      <trkpt lat="42.67148" lon="9.06068">
        <ele>2.060059</ele>
        <time>2011-09-11T08:26:40Z</time>
      </trkpt>
      <trkpt lat="42.67159" lon="9.06087">
        <ele>1.098633</ele>
        <time>2011-09-11T08:26:58Z</time>
      </trkpt>
      <trkpt lat="42.67161" lon="9.06105">
        <ele>2.540649</ele>
        <time>2011-09-11T08:27:12Z</time>
      </trkpt>
      <trkpt lat="42.67169" lon="9.06133">
        <ele>2.060059</ele>
        <time>2011-09-11T08:27:30Z</time>
      </trkpt>
      <trkpt lat="42.67168" lon="9.06161">
        <ele>2.540649</ele>
        <time>2011-09-11T08:27:48Z</time>
      </trkpt>
      <trkpt lat="42.67171" lon="9.06187">
        <ele>3.501953</ele>
        <time>2011-09-11T08:28:06Z</time>
      </trkpt>
      <trkpt lat="42.67177" lon="9.0621">
        <ele>1.579346</ele>
        <time>2011-09-11T08:28:23Z</time>
      </trkpt>
      <trkpt lat="42.67179" lon="9.06233">
        <ele>1.098633</ele>
        <time>2011-09-11T08:28:38Z</time>
      </trkpt>
      <trkpt lat="42.67177" lon="9.06239">
        <ele>0.618042</ele>
        <time>2011-09-11T08:28:42Z</time>
      </trkpt>
      <trkpt lat="42.67178" lon="9.06245">
        <ele>1.098633</ele>
        <time>2011-09-11T08:28:46Z</time>
      </trkpt>
      <trkpt lat="42.67193" lon="9.06263">
        <ele>0.618042</ele>
        <time>2011-09-11T08:29:04Z</time>
      </trkpt>
      <trkpt lat="42.672" lon="9.0627">
        <ele>0.137451</ele>
        <time>2011-09-11T08:29:11Z</time>
      </trkpt>
      <trkpt lat="42.67203" lon="9.06272">
        <ele>0.137451</ele>
        <time>2011-09-11T08:29:15Z</time>
      </trkpt>
      <trkpt lat="42.67218" lon="9.06286">
        <ele>0.618042</ele>
        <time>2011-09-11T08:29:31Z</time>
      </trkpt>
      <trkpt lat="42.67222" lon="9.0629">
        <ele>0.618042</ele>
        <time>2011-09-11T08:29:35Z</time>
      </trkpt>
      <trkpt lat="42.67243" lon="9.06297">
        <ele>3.501953</ele>
        <time>2011-09-11T08:29:55Z</time>
      </trkpt>
      <trkpt lat="42.67246" lon="9.06298">
        <ele>3.02124</ele>
        <time>2011-09-11T08:29:58Z</time>
      </trkpt>
      <trkpt lat="42.67252" lon="9.06299">
        <ele>3.982666</ele>
        <time>2011-09-11T08:30:05Z</time>
      </trkpt>
      <trkpt lat="42.67262" lon="9.06305">
        <ele>5.424561</ele>
        <time>2011-09-11T08:30:14Z</time>
      </trkpt>
      <trkpt lat="42.67266" lon="9.06308">
        <ele>7.347168</ele>
        <time>2011-09-11T08:30:19Z</time>
      </trkpt>
      <trkpt lat="42.67292" lon="9.06315">
        <ele>6.866455</ele>
        <time>2011-09-11T08:30:41Z</time>
      </trkpt>
      <trkpt lat="42.67309" lon="9.06326">
        <ele>7.347168</ele>
        <time>2011-09-11T08:30:58Z</time>
      </trkpt>
      <trkpt lat="42.67322" lon="9.06337">
        <ele>8.789185</ele>
        <time>2011-09-11T08:31:13Z</time>
      </trkpt>
      <trkpt lat="42.67346" lon="9.06337">
        <ele>10.231201</ele>
        <time>2011-09-11T08:31:35Z</time>
      </trkpt>
      <trkpt lat="42.67367" lon="9.06338">
        <ele>10.231201</ele>
        <time>2011-09-11T08:31:54Z</time>
      </trkpt>
      <trkpt lat="42.67371" lon="9.06341">
        <ele>10.711792</ele>
        <time>2011-09-11T08:31:58Z</time>
      </trkpt>
      <trkpt lat="42.67395" lon="9.0635">
        <ele>10.711792</ele>
        <time>2011-09-11T08:32:18Z</time>
      </trkpt>
      <trkpt lat="42.6741" lon="9.0635">
        <ele>9.269897</ele>
        <time>2011-09-11T08:32:32Z</time>
      </trkpt>
      <trkpt lat="42.6743" lon="9.06349">
        <ele>10.711792</ele>
        <time>2011-09-11T08:32:49Z</time>
      </trkpt>
      <trkpt lat="42.67443" lon="9.06349">
        <ele>11.673218</ele>
        <time>2011-09-11T08:33:02Z</time>
      </trkpt>
      <trkpt lat="42.67448" lon="9.06359">
        <ele>13.115112</ele>
        <time>2011-09-11T08:33:10Z</time>
      </trkpt>
      <trkpt lat="42.67457" lon="9.06361">
        <ele>12.634399</ele>
        <time>2011-09-11T08:33:18Z</time>
      </trkpt>
      <trkpt lat="42.6747" lon="9.06362">
        <ele>11.673218</ele>
        <time>2011-09-11T08:33:30Z</time>
      </trkpt>
      <trkpt lat="42.67482" lon="9.06371">
        <ele>13.115112</ele>
        <time>2011-09-11T08:33:45Z</time>
      </trkpt>
      <trkpt lat="42.67496" lon="9.06382">
        <ele>14.076416</ele>
        <time>2011-09-11T08:34:00Z</time>
      </trkpt>
      <trkpt lat="42.67499" lon="9.06392">
        <ele>15.03772</ele>
        <time>2011-09-11T08:34:13Z</time>
      </trkpt>
      <trkpt lat="42.675" lon="9.06399">
        <ele>17.441162</ele>
        <time>2011-09-11T08:34:26Z</time>
      </trkpt>
      <trkpt lat="42.67509" lon="9.06407">
        <ele>18.402344</ele>
        <time>2011-09-11T08:34:40Z</time>
      </trkpt>
      <trkpt lat="42.67513" lon="9.06409">
        <ele>17.921753</ele>
        <time>2011-09-11T08:34:46Z</time>
      </trkpt>
      <trkpt lat="42.67525" lon="9.06413">
        <ele>17.921753</ele>
        <time>2011-09-11T08:35:01Z</time>
      </trkpt>
      <trkpt lat="42.67533" lon="9.06415">
        <ele>17.441162</ele>
        <time>2011-09-11T08:35:14Z</time>
      </trkpt>
      <trkpt lat="42.67533" lon="9.06415">
        <ele>17.441162</ele>
        <time>2011-09-11T08:35:15Z</time>
      </trkpt>
      <trkpt lat="42.67534" lon="9.06417">
        <ele>17.441162</ele>
        <time>2011-09-11T08:35:17Z</time>
      </trkpt>
      <trkpt lat="42.67537" lon="9.06427">
        <ele>17.441162</ele>
        <time>2011-09-11T08:35:27Z</time>
      </trkpt>
      <trkpt lat="42.6754" lon="9.06431">
        <ele>16.479736</ele>
        <time>2011-09-11T08:35:31Z</time>
      </trkpt>
      <trkpt lat="42.67559" lon="9.06444">
        <ele>15.999023</ele>
        <time>2011-09-11T08:35:48Z</time>
      </trkpt>
      <trkpt lat="42.67571" lon="9.0645">
        <ele>14.557007</ele>
        <time>2011-09-11T08:36:04Z</time>
      </trkpt>
      <trkpt lat="42.67575" lon="9.06449">
        <ele>15.518433</ele>
        <time>2011-09-11T08:36:10Z</time>
      </trkpt>
      <trkpt lat="42.67582" lon="9.06451">
        <ele>15.999023</ele>
        <time>2011-09-11T08:36:18Z</time>
      </trkpt>
      <trkpt lat="42.67588" lon="9.06473">
        <ele>17.921753</ele>
        <time>2011-09-11T08:36:35Z</time>
      </trkpt>
      <trkpt lat="42.67588" lon="9.06474">
        <ele>18.402344</ele>
        <time>2011-09-11T08:36:36Z</time>
      </trkpt>
      <trkpt lat="42.67593" lon="9.06498">
        <ele>20.324951</ele>
        <time>2011-09-11T08:36:54Z</time>
      </trkpt>
      <trkpt lat="42.67593" lon="9.06506">
        <ele>20.324951</ele>
        <time>2011-09-11T08:37:00Z</time>
      </trkpt>
      <trkpt lat="42.67597" lon="9.06531">
        <ele>23.689575</ele>
        <time>2011-09-11T08:37:19Z</time>
      </trkpt>
      <trkpt lat="42.67597" lon="9.06532">
        <ele>23.689575</ele>
        <time>2011-09-11T08:37:20Z</time>
      </trkpt>
      <trkpt lat="42.67604" lon="9.06549">
        <ele>25.131714</ele>
        <time>2011-09-11T08:37:36Z</time>
      </trkpt>
      <trkpt lat="42.67605" lon="9.06549">
        <ele>25.612305</ele>
        <time>2011-09-11T08:37:37Z</time>
      </trkpt>
      <trkpt lat="42.67623" lon="9.06555">
        <ele>28.015503</ele>
        <time>2011-09-11T08:37:56Z</time>
      </trkpt>
      <trkpt lat="42.67631" lon="9.06569">
        <ele>30.418823</ele>
        <time>2011-09-11T08:38:11Z</time>
      </trkpt>
      <trkpt lat="42.67633" lon="9.06572">
        <ele>31.380127</ele>
        <time>2011-09-11T08:38:15Z</time>
      </trkpt>
      <trkpt lat="42.6764" lon="9.06583">
        <ele>31.860718</ele>
        <time>2011-09-11T08:38:33Z</time>
      </trkpt>
      <trkpt lat="42.6764" lon="9.06582">
        <ele>32.341553</ele>
        <time>2011-09-11T08:38:39Z</time>
      </trkpt>
      <trkpt lat="42.67647" lon="9.06574">
        <ele>32.341553</ele>
        <time>2011-09-11T08:38:53Z</time>
      </trkpt>
      <trkpt lat="42.67647" lon="9.06574">
        <ele>31.860718</ele>
        <time>2011-09-11T08:39:03Z</time>
      </trkpt>
      <trkpt lat="42.67653" lon="9.06575">
        <ele>31.380127</ele>
        <time>2011-09-11T08:39:08Z</time>
      </trkpt>
      <trkpt lat="42.67657" lon="9.06571">
        <ele>30.418823</ele>
        <time>2011-09-11T08:39:14Z</time>
      </trkpt>
      <trkpt lat="42.67669" lon="9.06549">
        <ele>30.418823</ele>
        <time>2011-09-11T08:39:30Z</time>
      </trkpt>
      <trkpt lat="42.67684" lon="9.06532">
        <ele>29.45752</ele>
        <time>2011-09-11T08:39:44Z</time>
      </trkpt>
      <trkpt lat="42.67701" lon="9.06514">
        <ele>28.015503</ele>
        <time>2011-09-11T08:39:59Z</time>
      </trkpt>
      <trkpt lat="42.67712" lon="9.0651">
        <ele>27.534912</ele>
        <time>2011-09-11T08:40:07Z</time>
      </trkpt>
      <trkpt lat="42.67728" lon="9.06498">
        <ele>29.45752</ele>
        <time>2011-09-11T08:40:22Z</time>
      </trkpt>
      <trkpt lat="42.67741" lon="9.06479">
        <ele>28.976929</ele>
        <time>2011-09-11T08:40:39Z</time>
      </trkpt>
      <trkpt lat="42.67744" lon="9.06476">
        <ele>28.496216</ele>
        <time>2011-09-11T08:40:43Z</time>
      </trkpt>
      <trkpt lat="42.67747" lon="9.06471">
        <ele>29.45752</ele>
        <time>2011-09-11T08:40:47Z</time>
      </trkpt>
      <trkpt lat="42.67769" lon="9.06451">
        <ele>29.93811</ele>
        <time>2011-09-11T08:41:08Z</time>
      </trkpt>
      <trkpt lat="42.67774" lon="9.0645">
        <ele>30.899536</ele>
        <time>2011-09-11T08:41:14Z</time>
      </trkpt>
      <trkpt lat="42.67791" lon="9.06431">
        <ele>31.860718</ele>
        <time>2011-09-11T08:41:33Z</time>
      </trkpt>
      <trkpt lat="42.67808" lon="9.06416">
        <ele>32.822266</ele>
        <time>2011-09-11T08:41:51Z</time>
      </trkpt>
      <trkpt lat="42.6781" lon="9.06413">
        <ele>32.341553</ele>
        <time>2011-09-11T08:41:55Z</time>
      </trkpt>
      <trkpt lat="42.67834" lon="9.06402">
        <ele>33.783447</ele>
        <time>2011-09-11T08:42:18Z</time>
      </trkpt>
      <trkpt lat="42.67841" lon="9.06402">
        <ele>33.783447</ele>
        <time>2011-09-11T08:42:26Z</time>
      </trkpt>
      <trkpt lat="42.67847" lon="9.06403">
        <ele>34.744873</ele>
        <time>2011-09-11T08:42:32Z</time>
      </trkpt>
      <trkpt lat="42.67869" lon="9.06405">
        <ele>37.628662</ele>
        <time>2011-09-11T08:42:52Z</time>
      </trkpt>
      <trkpt lat="42.67877" lon="9.06408">
        <ele>38.109375</ele>
        <time>2011-09-11T08:42:59Z</time>
      </trkpt>
      <trkpt lat="42.6788" lon="9.06412">
        <ele>38.109375</ele>
        <time>2011-09-11T08:43:05Z</time>
      </trkpt>
      <trkpt lat="42.67884" lon="9.06419">
        <ele>37.628662</ele>
        <time>2011-09-11T08:43:12Z</time>
      </trkpt>
      <trkpt lat="42.67893" lon="9.06438">
        <ele>33.783447</ele>
        <time>2011-09-11T08:43:30Z</time>
      </trkpt>
      <trkpt lat="42.67896" lon="9.06445">
        <ele>33.302856</ele>
        <time>2011-09-11T08:43:37Z</time>
      </trkpt>
      <trkpt lat="42.67896" lon="9.06452">
        <ele>32.341553</ele>
        <time>2011-09-11T08:43:41Z</time>
      </trkpt>
      <trkpt lat="42.67896" lon="9.06466">
        <ele>30.899536</ele>
        <time>2011-09-11T08:43:53Z</time>
      </trkpt>
      <trkpt lat="42.67893" lon="9.06483">
        <ele>29.45752</ele>
        <time>2011-09-11T08:44:08Z</time>
      </trkpt>
      <trkpt lat="42.6789" lon="9.06495">
        <ele>27.054321</ele>
        <time>2011-09-11T08:44:23Z</time>
      </trkpt>
      <trkpt lat="42.67887" lon="9.06513">
        <ele>25.612305</ele>
        <time>2011-09-11T08:44:39Z</time>
      </trkpt>
      <trkpt lat="42.67885" lon="9.06526">
        <ele>23.689575</ele>
        <time>2011-09-11T08:44:52Z</time>
      </trkpt>
      <trkpt lat="42.67883" lon="9.06537">
        <ele>23.208984</ele>
        <time>2011-09-11T08:45:04Z</time>
      </trkpt>
      <trkpt lat="42.6788" lon="9.06551">
        <ele>23.208984</ele>
        <time>2011-09-11T08:45:18Z</time>
      </trkpt>
      <trkpt lat="42.67885" lon="9.0657">
        <ele>23.208984</ele>
        <time>2011-09-11T08:45:32Z</time>
      </trkpt>
      <trkpt lat="42.67891" lon="9.06582">
        <ele>22.247559</ele>
        <time>2011-09-11T08:45:42Z</time>
      </trkpt>
      <trkpt lat="42.679" lon="9.06586">
        <ele>22.728271</ele>
        <time>2011-09-11T08:45:56Z</time>
      </trkpt>
      <trkpt lat="42.67912" lon="9.06592">
        <ele>22.728271</ele>
        <time>2011-09-11T08:46:10Z</time>
      </trkpt>
      <trkpt lat="42.67919" lon="9.06588">
        <ele>22.728271</ele>
        <time>2011-09-11T08:46:23Z</time>
      </trkpt>
      <trkpt lat="42.6792" lon="9.06582">
        <ele>24.170288</ele>
        <time>2011-09-11T08:46:32Z</time>
      </trkpt>
      <trkpt lat="42.67924" lon="9.06576">
        <ele>26.092896</ele>
        <time>2011-09-11T08:46:44Z</time>
      </trkpt>
      <trkpt lat="42.67927" lon="9.06577">
        <ele>27.054321</ele>
        <time>2011-09-11T08:46:48Z</time>
      </trkpt>
      <trkpt lat="42.67939" lon="9.06571">
        <ele>29.93811</ele>
        <time>2011-09-11T08:47:03Z</time>
      </trkpt>
      <trkpt lat="42.67949" lon="9.06562">
        <ele>31.380127</ele>
        <time>2011-09-11T08:47:18Z</time>
      </trkpt>
      <trkpt lat="42.67958" lon="9.06558">
        <ele>31.860718</ele>
        <time>2011-09-11T08:47:32Z</time>
      </trkpt>
      <trkpt lat="42.67964" lon="9.0655">
        <ele>32.822266</ele>
        <time>2011-09-11T08:47:44Z</time>
      </trkpt>
      <trkpt lat="42.67973" lon="9.06544">
        <ele>34.744873</ele>
        <time>2011-09-11T08:47:56Z</time>
      </trkpt>
      <trkpt lat="42.67976" lon="9.06541">
        <ele>35.225464</ele>
        <time>2011-09-11T08:48:00Z</time>
      </trkpt>
      <trkpt lat="42.67978" lon="9.06533">
        <ele>35.225464</ele>
        <time>2011-09-11T08:48:06Z</time>
      </trkpt>
      <trkpt lat="42.67986" lon="9.065">
        <ele>35.225464</ele>
        <time>2011-09-11T08:48:27Z</time>
      </trkpt>
      <trkpt lat="42.67992" lon="9.06479">
        <ele>35.225464</ele>
        <time>2011-09-11T08:48:43Z</time>
      </trkpt>
      <trkpt lat="42.67993" lon="9.06478">
        <ele>35.706055</ele>
        <time>2011-09-11T08:48:45Z</time>
      </trkpt>
      <trkpt lat="42.68004" lon="9.0646">
        <ele>37.148071</ele>
        <time>2011-09-11T08:49:02Z</time>
      </trkpt>
      <trkpt lat="42.6801" lon="9.0645">
        <ele>38.109375</ele>
        <time>2011-09-11T08:49:11Z</time>
      </trkpt>
      <trkpt lat="42.68017" lon="9.06436">
        <ele>39.070679</ele>
        <time>2011-09-11T08:49:24Z</time>
      </trkpt>
      <trkpt lat="42.68029" lon="9.06418">
        <ele>38.590088</ele>
        <time>2011-09-11T08:49:42Z</time>
      </trkpt>
      <trkpt lat="42.68045" lon="9.06402">
        <ele>36.66748</ele>
        <time>2011-09-11T08:49:59Z</time>
      </trkpt>
      <trkpt lat="42.68052" lon="9.06397">
        <ele>36.66748</ele>
        <time>2011-09-11T08:50:07Z</time>
      </trkpt>
      <trkpt lat="42.68056" lon="9.06391">
        <ele>37.148071</ele>
        <time>2011-09-11T08:50:12Z</time>
      </trkpt>
      <trkpt lat="42.68059" lon="9.06388">
        <ele>37.148071</ele>
        <time>2011-09-11T08:50:15Z</time>
      </trkpt>
      <trkpt lat="42.6808" lon="9.06376">
        <ele>38.590088</ele>
        <time>2011-09-11T08:50:35Z</time>
      </trkpt>
      <trkpt lat="42.68096" lon="9.06374">
        <ele>41.473999</ele>
        <time>2011-09-11T08:50:53Z</time>
      </trkpt>
      <trkpt lat="42.68107" lon="9.06375">
        <ele>43.877319</ele>
        <time>2011-09-11T08:51:08Z</time>
      </trkpt>
      <trkpt lat="42.6812" lon="9.06366">
        <ele>45.319214</ele>
        <time>2011-09-11T08:51:23Z</time>
      </trkpt>
      <trkpt lat="42.68135" lon="9.06358">
        <ele>47.722534</ele>
        <time>2011-09-11T08:51:41Z</time>
      </trkpt>
      <trkpt lat="42.68146" lon="9.06358">
        <ele>49.645264</ele>
        <time>2011-09-11T08:51:54Z</time>
      </trkpt>
      <trkpt lat="42.68156" lon="9.06359">
        <ele>51.567871</ele>
        <time>2011-09-11T08:52:09Z</time>
      </trkpt>
      <trkpt lat="42.68164" lon="9.06361">
        <ele>53.971191</ele>
        <time>2011-09-11T08:52:22Z</time>
      </trkpt>
      <trkpt lat="42.68177" lon="9.06359">
        <ele>56.855103</ele>
        <time>2011-09-11T08:52:38Z</time>
      </trkpt>
      <trkpt lat="42.68188" lon="9.06357">
        <ele>58.77771</ele>
        <time>2011-09-11T08:52:52Z</time>
      </trkpt>
      <trkpt lat="42.68199" lon="9.06359">
        <ele>59.739136</ele>
        <time>2011-09-11T08:53:07Z</time>
      </trkpt>
      <trkpt lat="42.68208" lon="9.06361">
        <ele>59.258423</ele>
        <time>2011-09-11T08:53:19Z</time>
      </trkpt>
      <trkpt lat="42.68216" lon="9.06363">
        <ele>62.622925</ele>
        <time>2011-09-11T08:53:32Z</time>
      </trkpt>
      <trkpt lat="42.68226" lon="9.06366">
        <ele>65.50708</ele>
        <time>2011-09-11T08:53:46Z</time>
      </trkpt>
      <trkpt lat="42.68237" lon="9.06372">
        <ele>65.987671</ele>
        <time>2011-09-11T08:54:02Z</time>
      </trkpt>
      <trkpt lat="42.68247" lon="9.06375">
        <ele>68.871582</ele>
        <time>2011-09-11T08:54:16Z</time>
      </trkpt>
      <trkpt lat="42.68253" lon="9.06374">
        <ele>69.832886</ele>
        <time>2011-09-11T08:54:22Z</time>
      </trkpt>
      <trkpt lat="42.68266" lon="9.06367">
        <ele>71.274902</ele>
        <time>2011-09-11T08:54:39Z</time>
      </trkpt>
      <trkpt lat="42.68269" lon="9.06366">
        <ele>71.274902</ele>
        <time>2011-09-11T08:54:52Z</time>
      </trkpt>
      <trkpt lat="42.68271" lon="9.06367">
        <ele>71.274902</ele>
        <time>2011-09-11T08:54:56Z</time>
      </trkpt>
      <trkpt lat="42.68273" lon="9.06369">
        <ele>71.274902</ele>
        <time>2011-09-11T08:54:58Z</time>
      </trkpt>
      <trkpt lat="42.68279" lon="9.06373">
        <ele>71.755493</ele>
        <time>2011-09-11T08:55:04Z</time>
      </trkpt>
      <trkpt lat="42.683" lon="9.06381">
        <ele>73.678223</ele>
        <time>2011-09-11T08:55:23Z</time>
      </trkpt>
      <trkpt lat="42.68317" lon="9.0638">
        <ele>74.639526</ele>
        <time>2011-09-11T08:55:40Z</time>
      </trkpt>
      <trkpt lat="42.68324" lon="9.06378">
        <ele>74.639526</ele>
        <time>2011-09-11T08:55:46Z</time>
      </trkpt>
      <trkpt lat="42.68334" lon="9.06381">
        <ele>75.60083</ele>
        <time>2011-09-11T08:55:56Z</time>
      </trkpt>
      <trkpt lat="42.68359" lon="9.06374">
        <ele>78.004028</ele>
        <time>2011-09-11T08:56:19Z</time>
      </trkpt>
      <trkpt lat="42.68378" lon="9.06375">
        <ele>80.888184</ele>
        <time>2011-09-11T08:56:36Z</time>
      </trkpt>
      <trkpt lat="42.68386" lon="9.06374">
        <ele>81.368774</ele>
        <time>2011-09-11T08:56:47Z</time>
      </trkpt>
      <trkpt lat="42.68399" lon="9.06364">
        <ele>81.849365</ele>
        <time>2011-09-11T08:57:02Z</time>
      </trkpt>
      <trkpt lat="42.68418" lon="9.06345">
        <ele>83.771973</ele>
        <time>2011-09-11T08:57:23Z</time>
      </trkpt>
      <trkpt lat="42.68438" lon="9.06333">
        <ele>87.136597</ele>
        <time>2011-09-11T08:57:43Z</time>
      </trkpt>
      <trkpt lat="42.68454" lon="9.06319">
        <ele>88.578735</ele>
        <time>2011-09-11T08:58:00Z</time>
      </trkpt>
      <trkpt lat="42.68455" lon="9.06318">
        <ele>89.059326</ele>
        <time>2011-09-11T08:58:01Z</time>
      </trkpt>
      <trkpt lat="42.68476" lon="9.06302">
        <ele>90.981934</ele>
        <time>2011-09-11T08:58:22Z</time>
      </trkpt>
      <trkpt lat="42.68498" lon="9.0629">
        <ele>90.981934</ele>
        <time>2011-09-11T08:58:43Z</time>
      </trkpt>
      <trkpt lat="42.68501" lon="9.06289">
        <ele>90.501343</ele>
        <time>2011-09-11T08:58:47Z</time>
      </trkpt>
      <trkpt lat="42.68524" lon="9.06284">
        <ele>89.059326</ele>
        <time>2011-09-11T08:59:08Z</time>
      </trkpt>
      <trkpt lat="42.68541" lon="9.06293">
        <ele>89.059326</ele>
        <time>2011-09-11T08:59:24Z</time>
      </trkpt>
      <trkpt lat="42.6855" lon="9.06298">
        <ele>90.02063</ele>
        <time>2011-09-11T08:59:33Z</time>
      </trkpt>
      <trkpt lat="42.68571" lon="9.06302">
        <ele>92.42395</ele>
        <time>2011-09-11T08:59:53Z</time>
      </trkpt>
      <trkpt lat="42.68575" lon="9.06304">
        <ele>92.904541</ele>
        <time>2011-09-11T08:59:57Z</time>
      </trkpt>
      <trkpt lat="42.686" lon="9.06308">
        <ele>93.385132</ele>
        <time>2011-09-11T09:00:18Z</time>
      </trkpt>
      <trkpt lat="42.68624" lon="9.06318">
        <ele>94.827148</ele>
        <time>2011-09-11T09:00:39Z</time>
      </trkpt>
      <trkpt lat="42.6865" lon="9.06333">
        <ele>94.827148</ele>
        <time>2011-09-11T09:01:01Z</time>
      </trkpt>
      <trkpt lat="42.68674" lon="9.06341">
        <ele>93.385132</ele>
        <time>2011-09-11T09:01:21Z</time>
      </trkpt>
      <trkpt lat="42.687" lon="9.06346">
        <ele>92.42395</ele>
        <time>2011-09-11T09:01:42Z</time>
      </trkpt>
      <trkpt lat="42.6872" lon="9.06352">
        <ele>93.385132</ele>
        <time>2011-09-11T09:02:00Z</time>
      </trkpt>
      <trkpt lat="42.6874" lon="9.06371">
        <ele>90.981934</ele>
        <time>2011-09-11T09:02:21Z</time>
      </trkpt>
      <trkpt lat="42.68757" lon="9.06376">
        <ele>90.501343</ele>
        <time>2011-09-11T09:02:36Z</time>
      </trkpt>
      <trkpt lat="42.68777" lon="9.0638">
        <ele>89.539917</ele>
        <time>2011-09-11T09:02:54Z</time>
      </trkpt>
      <trkpt lat="42.68797" lon="9.06381">
        <ele>90.02063</ele>
        <time>2011-09-11T09:03:11Z</time>
      </trkpt>
      <trkpt lat="42.68811" lon="9.0637">
        <ele>91.462524</ele>
        <time>2011-09-11T09:03:25Z</time>
      </trkpt>
      <trkpt lat="42.68823" lon="9.06373">
        <ele>92.904541</ele>
        <time>2011-09-11T09:03:42Z</time>
      </trkpt>
      <trkpt lat="42.68824" lon="9.06376">
        <ele>92.904541</ele>
        <time>2011-09-11T09:03:45Z</time>
      </trkpt>
      <trkpt lat="42.68826" lon="9.06381">
        <ele>92.904541</ele>
        <time>2011-09-11T09:03:49Z</time>
      </trkpt>
      <trkpt lat="42.68843" lon="9.064">
        <ele>91.462524</ele>
        <time>2011-09-11T09:04:09Z</time>
      </trkpt>
      <trkpt lat="42.68856" lon="9.06417">
        <ele>92.42395</ele>
        <time>2011-09-11T09:04:25Z</time>
      </trkpt>
      <trkpt lat="42.6887" lon="9.06431">
        <ele>94.827148</ele>
        <time>2011-09-11T09:04:40Z</time>
      </trkpt>
      <trkpt lat="42.68874" lon="9.06432">
        <ele>94.827148</ele>
        <time>2011-09-11T09:04:44Z</time>
      </trkpt>
      <trkpt lat="42.68891" lon="9.06441">
        <ele>97.230469</ele>
        <time>2011-09-11T09:05:02Z</time>
      </trkpt>
      <trkpt lat="42.68906" lon="9.06448">
        <ele>98.191895</ele>
        <time>2011-09-11T09:05:17Z</time>
      </trkpt>
      <trkpt lat="42.6891" lon="9.0645">
        <ele>96.749878</ele>
        <time>2011-09-11T09:05:20Z</time>
      </trkpt>
      <trkpt lat="42.68925" lon="9.06455">
        <ele>95.788452</ele>
        <time>2011-09-11T09:05:39Z</time>
      </trkpt>
      <trkpt lat="42.68944" lon="9.0646">
        <ele>96.269287</ele>
        <time>2011-09-11T09:05:54Z</time>
      </trkpt>
      <trkpt lat="42.68974" lon="9.06469">
        <ele>98.672485</ele>
        <time>2011-09-11T09:06:15Z</time>
      </trkpt>
      <trkpt lat="42.68996" lon="9.06468">
        <ele>102.5177</ele>
        <time>2011-09-11T09:06:35Z</time>
      </trkpt>
      <trkpt lat="42.69008" lon="9.06472">
        <ele>104.44043</ele>
        <time>2011-09-11T09:06:50Z</time>
      </trkpt>
      <trkpt lat="42.69009" lon="9.06472">
        <ele>104.921021</ele>
        <time>2011-09-11T09:06:51Z</time>
      </trkpt>
      <trkpt lat="42.69023" lon="9.06467">
        <ele>105.401733</ele>
        <time>2011-09-11T09:07:06Z</time>
      </trkpt>
      <trkpt lat="42.69046" lon="9.06462">
        <ele>108.766235</ele>
        <time>2011-09-11T09:07:25Z</time>
      </trkpt>
      <trkpt lat="42.6905" lon="9.06462">
        <ele>109.727661</ele>
        <time>2011-09-11T09:07:29Z</time>
      </trkpt>
      <trkpt lat="42.69055" lon="9.06472">
        <ele>111.169556</ele>
        <time>2011-09-11T09:07:41Z</time>
      </trkpt>
      <trkpt lat="42.69054" lon="9.06478">
        <ele>112.130981</ele>
        <time>2011-09-11T09:07:46Z</time>
      </trkpt>
      <trkpt lat="42.69052" lon="9.06489">
        <ele>113.572998</ele>
        <time>2011-09-11T09:08:01Z</time>
      </trkpt>
      <trkpt lat="42.6905" lon="9.06489">
        <ele>114.053589</ele>
        <time>2011-09-11T09:08:22Z</time>
      </trkpt>
      <trkpt lat="42.69035" lon="9.06495">
        <ele>113.092285</ele>
        <time>2011-09-11T09:08:41Z</time>
      </trkpt>
      <trkpt lat="42.69024" lon="9.06496">
        <ele>110.688843</ele>
        <time>2011-09-11T09:08:56Z</time>
      </trkpt>
      <trkpt lat="42.69016" lon="9.06505">
        <ele>108.285645</ele>
        <time>2011-09-11T09:09:10Z</time>
      </trkpt>
      <trkpt lat="42.69002" lon="9.06522">
        <ele>104.921021</ele>
        <time>2011-09-11T09:09:29Z</time>
      </trkpt>
      <trkpt lat="42.68995" lon="9.06531">
        <ele>104.44043</ele>
        <time>2011-09-11T09:09:39Z</time>
      </trkpt>
      <trkpt lat="42.68983" lon="9.06552">
        <ele>102.037109</ele>
        <time>2011-09-11T09:09:57Z</time>
      </trkpt>
      <trkpt lat="42.68981" lon="9.06582">
        <ele>102.037109</ele>
        <time>2011-09-11T09:10:15Z</time>
      </trkpt>
      <trkpt lat="42.68979" lon="9.06612">
        <ele>101.556396</ele>
        <time>2011-09-11T09:10:33Z</time>
      </trkpt>
      <trkpt lat="42.68985" lon="9.06635">
        <ele>102.5177</ele>
        <time>2011-09-11T09:10:48Z</time>
      </trkpt>
      <trkpt lat="42.68988" lon="9.06642">
        <ele>102.998291</ele>
        <time>2011-09-11T09:10:53Z</time>
      </trkpt>
      <trkpt lat="42.68987" lon="9.06672">
        <ele>101.556396</ele>
        <time>2011-09-11T09:11:13Z</time>
      </trkpt>
      <trkpt lat="42.68987" lon="9.06675">
        <ele>100.595093</ele>
        <time>2011-09-11T09:11:15Z</time>
      </trkpt>
      <trkpt lat="42.68988" lon="9.06702">
        <ele>98.672485</ele>
        <time>2011-09-11T09:11:32Z</time>
      </trkpt>
      <trkpt lat="42.68992" lon="9.06731">
        <ele>99.633789</ele>
        <time>2011-09-11T09:11:49Z</time>
      </trkpt>
      <trkpt lat="42.68994" lon="9.06743">
        <ele>98.672485</ele>
        <time>2011-09-11T09:11:56Z</time>
      </trkpt>
      <trkpt lat="42.68991" lon="9.06748">
        <ele>98.672485</ele>
        <time>2011-09-11T09:12:00Z</time>
      </trkpt>
      <trkpt lat="42.68977" lon="9.06772">
        <ele>97.711182</ele>
        <time>2011-09-11T09:12:20Z</time>
      </trkpt>
      <trkpt lat="42.68974" lon="9.06784">
        <ele>95.788452</ele>
        <time>2011-09-11T09:12:29Z</time>
      </trkpt>
      <trkpt lat="42.68969" lon="9.06793">
        <ele>94.827148</ele>
        <time>2011-09-11T09:12:38Z</time>
      </trkpt>
      <trkpt lat="42.68965" lon="9.06799">
        <ele>93.865845</ele>
        <time>2011-09-11T09:12:43Z</time>
      </trkpt>
      <trkpt lat="42.6896" lon="9.06809">
        <ele>91.943237</ele>
        <time>2011-09-11T09:12:52Z</time>
      </trkpt>
      <trkpt lat="42.68953" lon="9.06818">
        <ele>91.462524</ele>
        <time>2011-09-11T09:13:02Z</time>
      </trkpt>
      <trkpt lat="42.68946" lon="9.06836">
        <ele>88.578735</ele>
        <time>2011-09-11T09:13:18Z</time>
      </trkpt>
      <trkpt lat="42.68946" lon="9.06837">
        <ele>88.098022</ele>
        <time>2011-09-11T09:13:19Z</time>
      </trkpt>
      <trkpt lat="42.68944" lon="9.06844">
        <ele>87.136597</ele>
        <time>2011-09-11T09:13:24Z</time>
      </trkpt>
      <trkpt lat="42.68943" lon="9.06872">
        <ele>85.69458</ele>
        <time>2011-09-11T09:13:43Z</time>
      </trkpt>
      <trkpt lat="42.68948" lon="9.06889">
        <ele>82.810791</ele>
        <time>2011-09-11T09:14:01Z</time>
      </trkpt>
      <trkpt lat="42.68951" lon="9.06886">
        <ele>80.888184</ele>
        <time>2011-09-11T09:14:08Z</time>
      </trkpt>
      <trkpt lat="42.68958" lon="9.06873">
        <ele>78.004028</ele>
        <time>2011-09-11T09:14:23Z</time>
      </trkpt>
      <trkpt lat="42.68965" lon="9.0687">
        <ele>76.081421</ele>
        <time>2011-09-11T09:14:32Z</time>
      </trkpt>
      <trkpt lat="42.6897" lon="9.06869">
        <ele>76.081421</ele>
        <time>2011-09-11T09:14:36Z</time>
      </trkpt>
      <trkpt lat="42.68988" lon="9.06874">
        <ele>74.639526</ele>
        <time>2011-09-11T09:14:55Z</time>
      </trkpt>
      <trkpt lat="42.69" lon="9.06876">
        <ele>72.716919</ele>
        <time>2011-09-11T09:15:09Z</time>
      </trkpt>
      <trkpt lat="42.69013" lon="9.06872">
        <ele>70.794189</ele>
        <time>2011-09-11T09:15:25Z</time>
      </trkpt>
      <trkpt lat="42.69021" lon="9.06859">
        <ele>69.832886</ele>
        <time>2011-09-11T09:15:40Z</time>
      </trkpt>
      <trkpt lat="42.69028" lon="9.06852">
        <ele>66.468262</ele>
        <time>2011-09-11T09:15:55Z</time>
      </trkpt>
      <trkpt lat="42.69037" lon="9.06848">
        <ele>63.584351</ele>
        <time>2011-09-11T09:16:13Z</time>
      </trkpt>
      <trkpt lat="42.69037" lon="9.06859">
        <ele>61.18103</ele>
        <time>2011-09-11T09:16:22Z</time>
      </trkpt>
      <trkpt lat="42.69037" lon="9.0688">
        <ele>59.258423</ele>
        <time>2011-09-11T09:16:40Z</time>
      </trkpt>
      <trkpt lat="42.69032" lon="9.06895">
        <ele>55.893799</ele>
        <time>2011-09-11T09:16:54Z</time>
      </trkpt>
      <trkpt lat="42.69032" lon="9.06901">
        <ele>55.413086</ele>
        <time>2011-09-11T09:17:06Z</time>
      </trkpt>
      <trkpt lat="42.69024" lon="9.06918">
        <ele>53.490479</ele>
        <time>2011-09-11T09:17:21Z</time>
      </trkpt>
      <trkpt lat="42.69023" lon="9.06921">
        <ele>53.490479</ele>
        <time>2011-09-11T09:17:23Z</time>
      </trkpt>
      <trkpt lat="42.69021" lon="9.06929">
        <ele>52.529175</ele>
        <time>2011-09-11T09:17:28Z</time>
      </trkpt>
      <trkpt lat="42.69021" lon="9.06936">
        <ele>53.971191</ele>
        <time>2011-09-11T09:17:33Z</time>
      </trkpt>
      <trkpt lat="42.69023" lon="9.06939">
        <ele>53.490479</ele>
        <time>2011-09-11T09:17:37Z</time>
      </trkpt>
      <trkpt lat="42.69035" lon="9.06933">
        <ele>51.087158</ele>
        <time>2011-09-11T09:17:49Z</time>
      </trkpt>
      <trkpt lat="42.69049" lon="9.0695">
        <ele>52.529175</ele>
        <time>2011-09-11T09:18:06Z</time>
      </trkpt>
      <trkpt lat="42.6905" lon="9.06952">
        <ele>50.606567</ele>
        <time>2011-09-11T09:18:08Z</time>
      </trkpt>
      <trkpt lat="42.69053" lon="9.06958">
        <ele>50.125977</ele>
        <time>2011-09-11T09:18:12Z</time>
      </trkpt>
      <trkpt lat="42.69066" lon="9.0698">
        <ele>48.68396</ele>
        <time>2011-09-11T09:18:29Z</time>
      </trkpt>
      <trkpt lat="42.69079" lon="9.07008">
        <ele>46.76123</ele>
        <time>2011-09-11T09:18:48Z</time>
      </trkpt>
      <trkpt lat="42.69082" lon="9.07015">
        <ele>46.76123</ele>
        <time>2011-09-11T09:18:53Z</time>
      </trkpt>
      <trkpt lat="42.69093" lon="9.07026">
        <ele>46.28064</ele>
        <time>2011-09-11T09:19:06Z</time>
      </trkpt>
      <trkpt lat="42.69101" lon="9.0703">
        <ele>44.838623</ele>
        <time>2011-09-11T09:19:13Z</time>
      </trkpt>
      <trkpt lat="42.69105" lon="9.07034">
        <ele>44.838623</ele>
        <time>2011-09-11T09:19:17Z</time>
      </trkpt>
      <trkpt lat="42.69117" lon="9.0704">
        <ele>41.954712</ele>
        <time>2011-09-11T09:19:28Z</time>
      </trkpt>
      <trkpt lat="42.69125" lon="9.07044">
        <ele>40.512817</ele>
        <time>2011-09-11T09:19:36Z</time>
      </trkpt>
      <trkpt lat="42.69127" lon="9.07036">
        <ele>39.070679</ele>
        <time>2011-09-11T09:19:42Z</time>
      </trkpt>
      <trkpt lat="42.6913" lon="9.07033">
        <ele>39.55127</ele>
        <time>2011-09-11T09:19:51Z</time>
      </trkpt>
      <trkpt lat="42.69127" lon="9.07029">
        <ele>39.070679</ele>
        <time>2011-09-11T09:19:56Z</time>
      </trkpt>
      <trkpt lat="42.69122" lon="9.07023">
        <ele>38.590088</ele>
        <time>2011-09-11T09:20:07Z</time>
      </trkpt>
      <trkpt lat="42.69115" lon="9.0701">
        <ele>37.628662</ele>
        <time>2011-09-11T09:20:22Z</time>
      </trkpt>
      <trkpt lat="42.69113" lon="9.07008">
        <ele>37.148071</ele>
        <time>2011-09-11T09:20:25Z</time>
      </trkpt>
      <trkpt lat="42.69106" lon="9.06997">
        <ele>37.148071</ele>
        <time>2011-09-11T09:20:37Z</time>
      </trkpt>
      <trkpt lat="42.69103" lon="9.06993">
        <ele>36.186768</ele>
        <time>2011-09-11T09:20:47Z</time>
      </trkpt>
      <trkpt lat="42.69099" lon="9.06988">
        <ele>36.186768</ele>
        <time>2011-09-11T09:20:52Z</time>
      </trkpt>
      <trkpt lat="42.6909" lon="9.06974">
        <ele>34.26416</ele>
        <time>2011-09-11T09:21:06Z</time>
      </trkpt>
      <trkpt lat="42.69085" lon="9.06966">
        <ele>34.26416</ele>
        <time>2011-09-11T09:21:18Z</time>
      </trkpt>
      <trkpt lat="42.69082" lon="9.06963">
        <ele>34.744873</ele>
        <time>2011-09-11T09:21:22Z</time>
      </trkpt>
      <trkpt lat="42.69081" lon="9.0696">
        <ele>34.744873</ele>
        <time>2011-09-11T09:21:33Z</time>
      </trkpt>
      <trkpt lat="42.69081" lon="9.0696">
        <ele>34.744873</ele>
        <time>2011-09-11T09:21:35Z</time>
      </trkpt>
      <trkpt lat="42.6909" lon="9.06973">
        <ele>34.744873</ele>
        <time>2011-09-11T09:21:50Z</time>
      </trkpt>
      <trkpt lat="42.69098" lon="9.06986">
        <ele>35.706055</ele>
        <time>2011-09-11T09:22:05Z</time>
      </trkpt>
      <trkpt lat="42.69109" lon="9.07003">
        <ele>36.66748</ele>
        <time>2011-09-11T09:22:21Z</time>
      </trkpt>
      <trkpt lat="42.69111" lon="9.07004">
        <ele>36.66748</ele>
        <time>2011-09-11T09:22:23Z</time>
      </trkpt>
      <trkpt lat="42.69121" lon="9.07022">
        <ele>37.628662</ele>
        <time>2011-09-11T09:22:40Z</time>
      </trkpt>
      <trkpt lat="42.69132" lon="9.07045">
        <ele>38.590088</ele>
        <time>2011-09-11T09:22:58Z</time>
      </trkpt>
      <trkpt lat="42.69132" lon="9.07048">
        <ele>38.109375</ele>
        <time>2011-09-11T09:23:00Z</time>
      </trkpt>
      <trkpt lat="42.69137" lon="9.07057">
        <ele>37.628662</ele>
        <time>2011-09-11T09:23:07Z</time>
      </trkpt>
      <trkpt lat="42.69152" lon="9.0709">
        <ele>37.148071</ele>
        <time>2011-09-11T09:23:30Z</time>
      </trkpt>
      <trkpt lat="42.69168" lon="9.07116">
        <ele>38.590088</ele>
        <time>2011-09-11T09:23:51Z</time>
      </trkpt>
      <trkpt lat="42.69168" lon="9.07145">
        <ele>37.628662</ele>
        <time>2011-09-11T09:24:11Z</time>
      </trkpt>
      <trkpt lat="42.69159" lon="9.07155">
        <ele>38.109375</ele>
        <time>2011-09-11T09:24:21Z</time>
      </trkpt>
      <trkpt lat="42.69163" lon="9.07163">
        <ele>38.590088</ele>
        <time>2011-09-11T09:24:27Z</time>
      </trkpt>
      <trkpt lat="42.69184" lon="9.07175">
        <ele>37.628662</ele>
        <time>2011-09-11T09:24:45Z</time>
      </trkpt>
      <trkpt lat="42.69207" lon="9.07176">
        <ele>36.66748</ele>
        <time>2011-09-11T09:25:03Z</time>
      </trkpt>
      <trkpt lat="42.69224" lon="9.07171">
        <ele>35.706055</ele>
        <time>2011-09-11T09:25:21Z</time>
      </trkpt>
      <trkpt lat="42.69224" lon="9.07169">
        <ele>35.225464</ele>
        <time>2011-09-11T09:25:25Z</time>
      </trkpt>
      <trkpt lat="42.69227" lon="9.07176">
        <ele>35.225464</ele>
        <time>2011-09-11T09:25:31Z</time>
      </trkpt>
      <trkpt lat="42.69254" lon="9.07196">
        <ele>32.822266</ele>
        <time>2011-09-11T09:25:55Z</time>
      </trkpt>
      <trkpt lat="42.69264" lon="9.07204">
        <ele>31.860718</ele>
        <time>2011-09-11T09:26:04Z</time>
      </trkpt>
      <trkpt lat="42.69284" lon="9.07225">
        <ele>30.899536</ele>
        <time>2011-09-11T09:26:24Z</time>
      </trkpt>
      <trkpt lat="42.69287" lon="9.07229">
        <ele>30.899536</ele>
        <time>2011-09-11T09:26:28Z</time>
      </trkpt>
      <trkpt lat="42.69288" lon="9.07225">
        <ele>29.93811</ele>
        <time>2011-09-11T09:26:32Z</time>
      </trkpt>
      <trkpt lat="42.69285" lon="9.07205">
        <ele>26.573608</ele>
        <time>2011-09-11T09:26:47Z</time>
      </trkpt>
      <trkpt lat="42.69282" lon="9.07185">
        <ele>23.208984</ele>
        <time>2011-09-11T09:27:00Z</time>
      </trkpt>
      <trkpt lat="42.6928" lon="9.07154">
        <ele>19.84436</ele>
        <time>2011-09-11T09:27:21Z</time>
      </trkpt>
      <trkpt lat="42.69275" lon="9.07139">
        <ele>21.766968</ele>
        <time>2011-09-11T09:27:33Z</time>
      </trkpt>
      <trkpt lat="42.69271" lon="9.07133">
        <ele>21.766968</ele>
        <time>2011-09-11T09:27:41Z</time>
      </trkpt>
      <trkpt lat="42.69277" lon="9.07142">
        <ele>20.805664</ele>
        <time>2011-09-11T09:27:48Z</time>
      </trkpt>
      <trkpt lat="42.69282" lon="9.07125">
        <ele>16.960449</ele>
        <time>2011-09-11T09:28:00Z</time>
      </trkpt>
      <trkpt lat="42.6928" lon="9.07119">
        <ele>15.518433</ele>
        <time>2011-09-11T09:28:05Z</time>
      </trkpt>
      <trkpt lat="42.69277" lon="9.07117">
        <ele>14.557007</ele>
        <time>2011-09-11T09:28:08Z</time>
      </trkpt>
      <trkpt lat="42.69276" lon="9.07114">
        <ele>13.595825</ele>
        <time>2011-09-11T09:28:10Z</time>
      </trkpt>
      <trkpt lat="42.69263" lon="9.07107">
        <ele>10.231201</ele>
        <time>2011-09-11T09:28:23Z</time>
      </trkpt>
      <trkpt lat="42.69257" lon="9.07104">
        <ele>8.789185</ele>
        <time>2011-09-11T09:28:34Z</time>
      </trkpt>
      <trkpt lat="42.69256" lon="9.07104">
        <ele>8.308594</ele>
        <time>2011-09-11T09:28:40Z</time>
      </trkpt>
      <trkpt lat="42.69247" lon="9.07096">
        <ele>5.905273</ele>
        <time>2011-09-11T09:28:48Z</time>
      </trkpt>
      <trkpt lat="42.69239" lon="9.07088">
        <ele>5.905273</ele>
        <time>2011-09-11T09:28:58Z</time>
      </trkpt>
      <trkpt lat="42.69239" lon="9.07088">
        <ele>5.424561</ele>
        <time>2011-09-11T09:28:59Z</time>
      </trkpt>
      <trkpt lat="42.69237" lon="9.07075">
        <ele>3.501953</ele>
        <time>2011-09-11T09:29:14Z</time>
      </trkpt>
      <trkpt lat="42.69234" lon="9.07063">
        <ele>3.501953</ele>
        <time>2011-09-11T09:29:24Z</time>
      </trkpt>
      <trkpt lat="42.69229" lon="9.07041">
        <ele>2.540649</ele>
        <time>2011-09-11T09:29:40Z</time>
      </trkpt>
      <trkpt lat="42.69223" lon="9.0703">
        <ele>4.463257</ele>
        <time>2011-09-11T09:29:55Z</time>
      </trkpt>
      <trkpt lat="42.69225" lon="9.07026">
        <ele>2.540649</ele>
        <time>2011-09-11T09:30:09Z</time>
      </trkpt>
      <trkpt lat="42.69224" lon="9.0702">
        <ele>2.060059</ele>
        <time>2011-09-11T09:30:19Z</time>
      </trkpt>
      <trkpt lat="42.69216" lon="9.07005">
        <ele>2.060059</ele>
        <time>2011-09-11T09:30:35Z</time>
      </trkpt>
      <trkpt lat="42.69215" lon="9.06993">
        <ele>4.463257</ele>
        <time>2011-09-11T09:30:47Z</time>
      </trkpt>
      <trkpt lat="42.69209" lon="9.06988">
        <ele>4.943848</ele>
        <time>2011-09-11T09:30:59Z</time>
      </trkpt>
      <trkpt lat="42.6921" lon="9.06982">
        <ele>3.501953</ele>
        <time>2011-09-11T09:31:10Z</time>
      </trkpt>
      <trkpt lat="42.69214" lon="9.06982">
        <ele>2.540649</ele>
        <time>2011-09-11T09:31:23Z</time>
      </trkpt>
      <trkpt lat="42.69216" lon="9.0698">
        <ele>1.098633</ele>
        <time>2011-09-11T09:31:40Z</time>
      </trkpt>
      <trkpt lat="42.69219" lon="9.06986">
        <ele>1.579346</ele>
        <time>2011-09-11T09:47:56Z</time>
      </trkpt>
      <trkpt lat="42.69213" lon="9.06966">
        <ele>0.618042</ele>
        <time>2011-09-11T09:48:30Z</time>
      </trkpt>
      <trkpt lat="42.69213" lon="9.06972">
        <ele>0.618042</ele>
        <time>2011-09-11T09:51:41Z</time>
      </trkpt>
      <trkpt lat="42.69214" lon="9.06978">
        <ele>-1.304688</ele>
        <time>2011-09-11T09:58:04Z</time>
      </trkpt>
      <trkpt lat="42.69216" lon="9.06978">
        <ele>-1.785278</ele>
        <time>2011-09-11T10:03:25Z</time>
      </trkpt>
      <trkpt lat="42.69213" lon="9.06976">
        <ele>-3.227295</ele>
        <time>2011-09-11T10:11:22Z</time>
      </trkpt>
      <trkpt lat="42.69213" lon="9.06978">
        <ele>-3.227295</ele>
        <time>2011-09-11T10:11:28Z</time>
      </trkpt>
      <trkpt lat="42.69215" lon="9.06979">
        <ele>-2.746704</ele>
        <time>2011-09-11T10:11:30Z</time>
      </trkpt>
      <trkpt lat="42.69216" lon="9.06982">
        <ele>-2.746704</ele>
        <time>2011-09-11T10:11:46Z</time>
      </trkpt>
      <trkpt lat="42.69215" lon="9.06981">
        <ele>-2.265991</ele>
        <time>2011-09-11T10:13:23Z</time>
      </trkpt>
      <trkpt lat="42.69214" lon="9.06979">
        <ele>-2.746704</ele>
        <time>2011-09-11T10:13:36Z</time>
      </trkpt>
      <trkpt lat="42.69217" lon="9.06981">
        <ele>-0.824097</ele>
        <time>2011-09-11T10:20:54Z</time>
      </trkpt>
      <trkpt lat="42.6922" lon="9.06985">
        <ele>-0.343384</ele>
        <time>2011-09-11T10:23:12Z</time>
      </trkpt>
      <trkpt lat="42.69212" lon="9.06986">
        <ele>1.098633</ele>
        <time>2011-09-11T10:28:21Z</time>
      </trkpt>
      <trkpt lat="42.69215" lon="9.06986">
        <ele>1.098633</ele>
        <time>2011-09-11T10:28:50Z</time>
      </trkpt>
      <trkpt lat="42.69213" lon="9.06987">
        <ele>2.060059</ele>
        <time>2011-09-11T10:30:22Z</time>
      </trkpt>
      <trkpt lat="42.69214" lon="9.06988">
        <ele>2.060059</ele>
        <time>2011-09-11T10:30:41Z</time>
      </trkpt>
      <trkpt lat="42.69211" lon="9.06988">
        <ele>2.540649</ele>
        <time>2011-09-11T10:32:17Z</time>
      </trkpt>
      <trkpt lat="42.69216" lon="9.06982">
        <ele>2.060059</ele>
        <time>2011-09-11T11:05:23Z</time>
      </trkpt>
      <trkpt lat="42.69219" lon="9.06976">
        <ele>1.579346</ele>
        <time>2011-09-11T11:05:48Z</time>
      </trkpt>
      <trkpt lat="42.69216" lon="9.06977">
        <ele>1.579346</ele>
        <time>2011-09-11T11:06:11Z</time>
      </trkpt>
      <trkpt lat="42.69214" lon="9.0698">
        <ele>1.098633</ele>
        <time>2011-09-11T11:06:43Z</time>
      </trkpt>
      <trkpt lat="42.69222" lon="9.06978">
        <ele>0.618042</ele>
        <time>2011-09-11T11:10:31Z</time>
      </trkpt>
      <trkpt lat="42.69221" lon="9.06976">
        <ele>1.579346</ele>
        <time>2011-09-11T11:11:07Z</time>
      </trkpt>
      <trkpt lat="42.6922" lon="9.06979">
        <ele>1.098633</ele>
        <time>2011-09-11T11:11:34Z</time>
      </trkpt>
      <trkpt lat="42.69216" lon="9.06976">
        <ele>1.579346</ele>
        <time>2011-09-11T11:11:56Z</time>
      </trkpt>
      <trkpt lat="42.69215" lon="9.06977">
        <ele>1.579346</ele>
        <time>2011-09-11T11:12:24Z</time>
      </trkpt>
      <trkpt lat="42.69212" lon="9.06982">
        <ele>1.579346</ele>
        <time>2011-09-11T11:16:21Z</time>
      </trkpt>
      <trkpt lat="42.69216" lon="9.06983">
        <ele>2.060059</ele>
        <time>2011-09-11T11:16:41Z</time>
      </trkpt>
      <trkpt lat="42.69211" lon="9.06982">
        <ele>2.060059</ele>
        <time>2011-09-11T11:17:34Z</time>
      </trkpt>
      <trkpt lat="42.69214" lon="9.06983">
        <ele>2.060059</ele>
        <time>2011-09-11T11:17:52Z</time>
      </trkpt>
      <trkpt lat="42.69213" lon="9.06982">
        <ele>2.060059</ele>
        <time>2011-09-11T11:18:15Z</time>
      </trkpt>
      <trkpt lat="42.69217" lon="9.06979">
        <ele>2.060059</ele>
        <time>2011-09-11T11:18:36Z</time>
      </trkpt>
      <trkpt lat="42.69219" lon="9.06983">
        <ele>2.060059</ele>
        <time>2011-09-11T11:19:10Z</time>
      </trkpt>
      <trkpt lat="42.69218" lon="9.06976">
        <ele>1.579346</ele>
        <time>2011-09-11T11:19:31Z</time>
      </trkpt>
      <trkpt lat="42.69219" lon="9.06978">
        <ele>2.060059</ele>
        <time>2011-09-11T11:19:53Z</time>
      </trkpt>
      <trkpt lat="42.69219" lon="9.06977">
        <ele>1.579346</ele>
        <time>2011-09-11T11:20:24Z</time>
      </trkpt>
      <trkpt lat="42.69215" lon="9.06982">
        <ele>2.060059</ele>
        <time>2011-09-11T11:20:48Z</time>
      </trkpt>
      <trkpt lat="42.69213" lon="9.06977">
        <ele>-0.824097</ele>
        <time>2011-09-11T11:48:24Z</time>
      </trkpt>
      <trkpt lat="42.69206" lon="9.06975">
        <ele>-1.785278</ele>
        <time>2011-09-11T11:55:59Z</time>
      </trkpt>
      <trkpt lat="42.6921" lon="9.06974">
        <ele>-3.707886</ele>
        <time>2011-09-11T12:02:02Z</time>
      </trkpt>
      <trkpt lat="42.6921" lon="9.06975">
        <ele>-3.227295</ele>
        <time>2011-09-11T12:08:28Z</time>
      </trkpt>
      <trkpt lat="42.6921" lon="9.06976">
        <ele>-3.707886</ele>
        <time>2011-09-11T12:14:23Z</time>
      </trkpt>
      <trkpt lat="42.69212" lon="9.06978">
        <ele>-3.707886</ele>
        <time>2011-09-11T12:37:51Z</time>
      </trkpt>
      <trkpt lat="42.6921" lon="9.06972">
        <ele>-3.227295</ele>
        <time>2011-09-11T12:41:04Z</time>
      </trkpt>
      <trkpt lat="42.69206" lon="9.06963">
        <ele>-3.227295</ele>
        <time>2011-09-11T12:41:39Z</time>
      </trkpt>
      <trkpt lat="42.69205" lon="9.06957">
        <ele>-3.707886</ele>
        <time>2011-09-11T12:41:58Z</time>
      </trkpt>
      <trkpt lat="42.69203" lon="9.06951">
        <ele>-4.188599</ele>
        <time>2011-09-11T12:42:19Z</time>
      </trkpt>
      <trkpt lat="42.692" lon="9.06943">
        <ele>-3.707886</ele>
        <time>2011-09-11T12:42:47Z</time>
      </trkpt>
      <trkpt lat="42.69199" lon="9.06939">
        <ele>-4.188599</ele>
        <time>2011-09-11T12:43:11Z</time>
      </trkpt>
      <trkpt lat="42.69212" lon="9.06976">
        <ele>-4.669312</ele>
        <time>2011-09-11T12:43:47Z</time>
      </trkpt>
      <trkpt lat="42.69213" lon="9.06979">
        <ele>-4.669312</ele>
        <time>2011-09-11T12:44:23Z</time>
      </trkpt>
      <trkpt lat="42.69211" lon="9.06975">
        <ele>-3.707886</ele>
        <time>2011-09-11T12:47:30Z</time>
      </trkpt>
      <trkpt lat="42.69211" lon="9.06976">
        <ele>-3.707886</ele>
        <time>2011-09-11T12:48:01Z</time>
      </trkpt>
      <trkpt lat="42.69211" lon="9.06979">
        <ele>-3.227295</ele>
        <time>2011-09-11T12:49:33Z</time>
      </trkpt>
      <trkpt lat="42.69211" lon="9.06978">
        <ele>-3.227295</ele>
        <time>2011-09-11T12:54:33Z</time>
      </trkpt>
      <trkpt lat="42.69211" lon="9.06976">
        <ele>-3.227295</ele>
        <time>2011-09-11T12:56:14Z</time>
      </trkpt>
      <trkpt lat="42.69208" lon="9.06981">
        <ele>-1.785278</ele>
        <time>2011-09-11T13:00:33Z</time>
      </trkpt>
      <trkpt lat="42.69208" lon="9.06981">
        <ele>-7.07251</ele>
        <time>2011-09-11T13:00:34Z</time>
      </trkpt>
      <trkpt lat="42.69208" lon="9.06981">
        <ele>-3.227295</ele>
        <time>2011-09-11T13:00:35Z</time>
      </trkpt>
      <trkpt lat="42.69209" lon="9.06981">
        <ele>-1.785278</ele>
        <time>2011-09-11T13:00:37Z</time>
      </trkpt>
      <trkpt lat="42.69213" lon="9.06977">
        <ele>-3.227295</ele>
        <time>2011-09-11T13:01:26Z</time>
      </trkpt>
      <trkpt lat="42.69215" lon="9.06976">
        <ele>-3.227295</ele>
        <time>2011-09-11T13:02:35Z</time>
      </trkpt>
    </trkseg>
  </trk>
  <trk>
    <name><![CDATA[ACTIVE LOG 005]]></name>
    <trkseg>
      <trkpt lat="42.69213" lon="9.06984">
        <ele>-0.824097</ele>
        <time>2011-09-11T13:26:53Z</time>
      </trkpt>
      <trkpt lat="42.69211" lon="9.06983">
        <ele>-1.785278</ele>
        <time>2011-09-11T13:27:09Z</time>
      </trkpt>
      <trkpt lat="42.69212" lon="9.06978">
        <ele>-1.304688</ele>
        <time>2011-09-11T13:27:43Z</time>
      </trkpt>
      <trkpt lat="42.69206" lon="9.06982">
        <ele>-0.343384</ele>
        <time>2011-09-11T13:27:57Z</time>
      </trkpt>
      <trkpt lat="42.69204" lon="9.06985">
        <ele>1.579346</ele>
        <time>2011-09-11T13:28:07Z</time>
      </trkpt>
      <trkpt lat="42.69204" lon="9.0699">
        <ele>1.579346</ele>
        <time>2011-09-11T13:28:21Z</time>
      </trkpt>
      <trkpt lat="42.69207" lon="9.06994">
        <ele>0.137451</ele>
        <time>2011-09-11T13:28:35Z</time>
      </trkpt>
      <trkpt lat="42.69216" lon="9.07006">
        <ele>-1.304688</ele>
        <time>2011-09-11T13:28:52Z</time>
      </trkpt>
      <trkpt lat="42.69216" lon="9.07007">
        <ele>-1.304688</ele>
        <time>2011-09-11T13:28:53Z</time>
      </trkpt>
      <trkpt lat="42.69223" lon="9.07022">
        <ele>-1.785278</ele>
        <time>2011-09-11T13:29:05Z</time>
      </trkpt>
      <trkpt lat="42.69226" lon="9.07029">
        <ele>-0.824097</ele>
        <time>2011-09-11T13:29:18Z</time>
      </trkpt>
      <trkpt lat="42.6923" lon="9.07041">
        <ele>-1.304688</ele>
        <time>2011-09-11T13:29:30Z</time>
      </trkpt>
      <trkpt lat="42.69236" lon="9.07066">
        <ele>-0.824097</ele>
        <time>2011-09-11T13:29:50Z</time>
      </trkpt>
      <trkpt lat="42.69232" lon="9.0708">
        <ele>2.060059</ele>
        <time>2011-09-11T13:30:05Z</time>
      </trkpt>
      <trkpt lat="42.69233" lon="9.07081">
        <ele>2.540649</ele>
        <time>2011-09-11T13:30:06Z</time>
      </trkpt>
      <trkpt lat="42.69236" lon="9.07091">
        <ele>3.501953</ele>
        <time>2011-09-11T13:30:19Z</time>
      </trkpt>
      <trkpt lat="42.69243" lon="9.07096">
        <ele>4.463257</ele>
        <time>2011-09-11T13:30:29Z</time>
      </trkpt>
      <trkpt lat="42.69252" lon="9.07102">
        <ele>7.827881</ele>
        <time>2011-09-11T13:30:43Z</time>
      </trkpt>
      <trkpt lat="42.69263" lon="9.07107">
        <ele>9.269897</ele>
        <time>2011-09-11T13:30:57Z</time>
      </trkpt>
      <trkpt lat="42.69273" lon="9.07114">
        <ele>11.673218</ele>
        <time>2011-09-11T13:31:14Z</time>
      </trkpt>
      <trkpt lat="42.69278" lon="9.07122">
        <ele>14.557007</ele>
        <time>2011-09-11T13:31:31Z</time>
      </trkpt>
      <trkpt lat="42.69278" lon="9.07133">
        <ele>17.441162</ele>
        <time>2011-09-11T13:32:00Z</time>
      </trkpt>
      <trkpt lat="42.69278" lon="9.07153">
        <ele>18.402344</ele>
        <time>2011-09-11T13:32:18Z</time>
      </trkpt>
      <trkpt lat="42.69279" lon="9.07158">
        <ele>18.883057</ele>
        <time>2011-09-11T13:32:25Z</time>
      </trkpt>
      <trkpt lat="42.69279" lon="9.07175">
        <ele>22.247559</ele>
        <time>2011-09-11T13:32:38Z</time>
      </trkpt>
      <trkpt lat="42.69282" lon="9.07201">
        <ele>24.170288</ele>
        <time>2011-09-11T13:32:57Z</time>
      </trkpt>
      <trkpt lat="42.69286" lon="9.07224">
        <ele>28.015503</ele>
        <time>2011-09-11T13:33:15Z</time>
      </trkpt>
      <trkpt lat="42.69286" lon="9.07225">
        <ele>27.054321</ele>
        <time>2011-09-11T13:33:16Z</time>
      </trkpt>
      <trkpt lat="42.69282" lon="9.07229">
        <ele>27.534912</ele>
        <time>2011-09-11T13:33:22Z</time>
      </trkpt>
      <trkpt lat="42.69267" lon="9.07211">
        <ele>28.496216</ele>
        <time>2011-09-11T13:33:41Z</time>
      </trkpt>
      <trkpt lat="42.69246" lon="9.07194">
        <ele>30.418823</ele>
        <time>2011-09-11T13:34:03Z</time>
      </trkpt>
      <trkpt lat="42.69227" lon="9.07178">
        <ele>33.302856</ele>
        <time>2011-09-11T13:34:24Z</time>
      </trkpt>
      <trkpt lat="42.69203" lon="9.07174">
        <ele>33.302856</ele>
        <time>2011-09-11T13:34:46Z</time>
      </trkpt>
      <trkpt lat="42.69178" lon="9.07174">
        <ele>33.783447</ele>
        <time>2011-09-11T13:35:07Z</time>
      </trkpt>
      <trkpt lat="42.6917" lon="9.07168">
        <ele>34.26416</ele>
        <time>2011-09-11T13:35:16Z</time>
      </trkpt>
      <trkpt lat="42.69154" lon="9.07155">
        <ele>34.26416</ele>
        <time>2011-09-11T13:35:34Z</time>
      </trkpt>
      <trkpt lat="42.69157" lon="9.0715">
        <ele>34.26416</ele>
        <time>2011-09-11T13:35:38Z</time>
      </trkpt>
      <trkpt lat="42.69168" lon="9.07139">
        <ele>33.302856</ele>
        <time>2011-09-11T13:35:50Z</time>
      </trkpt>
      <trkpt lat="42.6917" lon="9.07132">
        <ele>33.783447</ele>
        <time>2011-09-11T13:35:55Z</time>
      </trkpt>
      <trkpt lat="42.6916" lon="9.07107">
        <ele>33.783447</ele>
        <time>2011-09-11T13:36:14Z</time>
      </trkpt>
      <trkpt lat="42.69149" lon="9.07087">
        <ele>32.822266</ele>
        <time>2011-09-11T13:36:31Z</time>
      </trkpt>
      <trkpt lat="42.69136" lon="9.0706">
        <ele>32.341553</ele>
        <time>2011-09-11T13:36:53Z</time>
      </trkpt>
      <trkpt lat="42.69124" lon="9.07045">
        <ele>35.706055</ele>
        <time>2011-09-11T13:37:12Z</time>
      </trkpt>
      <trkpt lat="42.69109" lon="9.07035">
        <ele>38.590088</ele>
        <time>2011-09-11T13:37:32Z</time>
      </trkpt>
      <trkpt lat="42.69108" lon="9.07035">
        <ele>38.590088</ele>
        <time>2011-09-11T13:37:33Z</time>
      </trkpt>
      <trkpt lat="42.69091" lon="9.07027">
        <ele>40.993408</ele>
        <time>2011-09-11T13:37:52Z</time>
      </trkpt>
      <trkpt lat="42.69084" lon="9.07019">
        <ele>42.916016</ele>
        <time>2011-09-11T13:38:02Z</time>
      </trkpt>
      <trkpt lat="42.69083" lon="9.07018">
        <ele>42.435425</ele>
        <time>2011-09-11T13:38:03Z</time>
      </trkpt>
      <trkpt lat="42.69079" lon="9.07015">
        <ele>43.396606</ele>
        <time>2011-09-11T13:38:08Z</time>
      </trkpt>
      <trkpt lat="42.69072" lon="9.06996">
        <ele>44.838623</ele>
        <time>2011-09-11T13:38:23Z</time>
      </trkpt>
      <trkpt lat="42.69058" lon="9.0697">
        <ele>45.799927</ele>
        <time>2011-09-11T13:38:45Z</time>
      </trkpt>
      <trkpt lat="42.69057" lon="9.06968">
        <ele>45.319214</ele>
        <time>2011-09-11T13:38:47Z</time>
      </trkpt>
      <trkpt lat="42.69041" lon="9.06946">
        <ele>47.241821</ele>
        <time>2011-09-11T13:39:08Z</time>
      </trkpt>
      <trkpt lat="42.69024" lon="9.06943">
        <ele>48.203369</ele>
        <time>2011-09-11T13:39:25Z</time>
      </trkpt>
      <trkpt lat="42.6902" lon="9.06943">
        <ele>48.68396</ele>
        <time>2011-09-11T13:39:29Z</time>
      </trkpt>
      <trkpt lat="42.69018" lon="9.06941">
        <ele>48.203369</ele>
        <time>2011-09-11T13:39:32Z</time>
      </trkpt>
      <trkpt lat="42.69018" lon="9.06936">
        <ele>48.68396</ele>
        <time>2011-09-11T13:39:35Z</time>
      </trkpt>
      <trkpt lat="42.69019" lon="9.06924">
        <ele>48.68396</ele>
        <time>2011-09-11T13:39:44Z</time>
      </trkpt>
      <trkpt lat="42.69021" lon="9.06918">
        <ele>48.68396</ele>
        <time>2011-09-11T13:39:48Z</time>
      </trkpt>
      <trkpt lat="42.6903" lon="9.06899">
        <ele>50.606567</ele>
        <time>2011-09-11T13:40:06Z</time>
      </trkpt>
      <trkpt lat="42.69028" lon="9.06894">
        <ele>53.971191</ele>
        <time>2011-09-11T13:40:16Z</time>
      </trkpt>
      <trkpt lat="42.69033" lon="9.06878">
        <ele>55.413086</ele>
        <time>2011-09-11T13:40:32Z</time>
      </trkpt>
      <trkpt lat="42.69034" lon="9.06859">
        <ele>56.855103</ele>
        <time>2011-09-11T13:40:47Z</time>
      </trkpt>
      <trkpt lat="42.69034" lon="9.06843">
        <ele>60.219727</ele>
        <time>2011-09-11T13:41:03Z</time>
      </trkpt>
      <trkpt lat="42.69025" lon="9.06851">
        <ele>63.103638</ele>
        <time>2011-09-11T13:41:16Z</time>
      </trkpt>
      <trkpt lat="42.69018" lon="9.06859">
        <ele>65.026367</ele>
        <time>2011-09-11T13:41:30Z</time>
      </trkpt>
      <trkpt lat="42.69012" lon="9.06868">
        <ele>66.468262</ele>
        <time>2011-09-11T13:41:43Z</time>
      </trkpt>
      <trkpt lat="42.69011" lon="9.06871">
        <ele>66.948975</ele>
        <time>2011-09-11T13:41:54Z</time>
      </trkpt>
      <trkpt lat="42.69005" lon="9.06875">
        <ele>67.910278</ele>
        <time>2011-09-11T13:42:00Z</time>
      </trkpt>
      <trkpt lat="42.68993" lon="9.06874">
        <ele>70.313477</ele>
        <time>2011-09-11T13:42:14Z</time>
      </trkpt>
      <trkpt lat="42.68982" lon="9.06873">
        <ele>71.755493</ele>
        <time>2011-09-11T13:42:26Z</time>
      </trkpt>
      <trkpt lat="42.6896" lon="9.06868">
        <ele>73.678223</ele>
        <time>2011-09-11T13:42:49Z</time>
      </trkpt>
      <trkpt lat="42.68954" lon="9.06872">
        <ele>76.081421</ele>
        <time>2011-09-11T13:42:57Z</time>
      </trkpt>
      <trkpt lat="42.68948" lon="9.06884">
        <ele>78.484741</ele>
        <time>2011-09-11T13:43:12Z</time>
      </trkpt>
      <trkpt lat="42.68942" lon="9.06885">
        <ele>80.407471</ele>
        <time>2011-09-11T13:43:23Z</time>
      </trkpt>
      <trkpt lat="42.68937" lon="9.06887">
        <ele>81.368774</ele>
        <time>2011-09-11T13:43:28Z</time>
      </trkpt>
      <trkpt lat="42.68918" lon="9.06895">
        <ele>80.888184</ele>
        <time>2011-09-11T13:43:44Z</time>
      </trkpt>
      <trkpt lat="42.68909" lon="9.06899">
        <ele>80.407471</ele>
        <time>2011-09-11T13:43:53Z</time>
      </trkpt>
      <trkpt lat="42.68905" lon="9.06898">
        <ele>79.926636</ele>
        <time>2011-09-11T13:43:57Z</time>
      </trkpt>
      <trkpt lat="42.68896" lon="9.06873">
        <ele>78.965454</ele>
        <time>2011-09-11T13:44:17Z</time>
      </trkpt>
      <trkpt lat="42.68883" lon="9.0685">
        <ele>76.562134</ele>
        <time>2011-09-11T13:44:39Z</time>
      </trkpt>
      <trkpt lat="42.68863" lon="9.0683">
        <ele>75.60083</ele>
        <time>2011-09-11T13:45:00Z</time>
      </trkpt>
      <trkpt lat="42.68837" lon="9.06794">
        <ele>75.120239</ele>
        <time>2011-09-11T13:45:29Z</time>
      </trkpt>
      <trkpt lat="42.68817" lon="9.06761">
        <ele>74.158813</ele>
        <time>2011-09-11T13:45:53Z</time>
      </trkpt>
      <trkpt lat="42.68804" lon="9.06721">
        <ele>73.678223</ele>
        <time>2011-09-11T13:46:17Z</time>
      </trkpt>
      <trkpt lat="42.68796" lon="9.06689">
        <ele>72.716919</ele>
        <time>2011-09-11T13:46:37Z</time>
      </trkpt>
      <trkpt lat="42.68784" lon="9.06652">
        <ele>71.755493</ele>
        <time>2011-09-11T13:47:02Z</time>
      </trkpt>
      <trkpt lat="42.68768" lon="9.06625">
        <ele>70.313477</ele>
        <time>2011-09-11T13:47:22Z</time>
      </trkpt>
      <trkpt lat="42.68748" lon="9.066">
        <ele>70.313477</ele>
        <time>2011-09-11T13:47:45Z</time>
      </trkpt>
      <trkpt lat="42.68731" lon="9.06587">
        <ele>67.910278</ele>
        <time>2011-09-11T13:48:02Z</time>
      </trkpt>
      <trkpt lat="42.68707" lon="9.0657">
        <ele>66.948975</ele>
        <time>2011-09-11T13:48:24Z</time>
      </trkpt>
      <trkpt lat="42.68692" lon="9.06545">
        <ele>67.910278</ele>
        <time>2011-09-11T13:48:43Z</time>
      </trkpt>
      <trkpt lat="42.68669" lon="9.06528">
        <ele>69.352295</ele>
        <time>2011-09-11T13:49:05Z</time>
      </trkpt>
      <trkpt lat="42.68637" lon="9.06523">
        <ele>67.429688</ele>
        <time>2011-09-11T13:49:31Z</time>
      </trkpt>
      <trkpt lat="42.68615" lon="9.06535">
        <ele>64.065063</ele>
        <time>2011-09-11T13:49:51Z</time>
      </trkpt>
      <trkpt lat="42.68598" lon="9.06548">
        <ele>61.18103</ele>
        <time>2011-09-11T13:50:09Z</time>
      </trkpt>
      <trkpt lat="42.68581" lon="9.0656">
        <ele>59.739136</ele>
        <time>2011-09-11T13:50:27Z</time>
      </trkpt>
      <trkpt lat="42.68573" lon="9.06566">
        <ele>57.335815</ele>
        <time>2011-09-11T13:50:37Z</time>
      </trkpt>
      <trkpt lat="42.68556" lon="9.0657">
        <ele>54.932373</ele>
        <time>2011-09-11T13:50:53Z</time>
      </trkpt>
      <trkpt lat="42.68535" lon="9.0658">
        <ele>53.971191</ele>
        <time>2011-09-11T13:51:12Z</time>
      </trkpt>
      <trkpt lat="42.68526" lon="9.06555">
        <ele>54.451782</ele>
        <time>2011-09-11T13:51:27Z</time>
      </trkpt>
      <trkpt lat="42.68521" lon="9.06526">
        <ele>55.413086</ele>
        <time>2011-09-11T13:51:43Z</time>
      </trkpt>
      <trkpt lat="42.68522" lon="9.0652">
        <ele>56.374512</ele>
        <time>2011-09-11T13:51:47Z</time>
      </trkpt>
      <trkpt lat="42.68516" lon="9.06496">
        <ele>57.335815</ele>
        <time>2011-09-11T13:52:04Z</time>
      </trkpt>
      <trkpt lat="42.68502" lon="9.06474">
        <ele>60.219727</ele>
        <time>2011-09-11T13:52:22Z</time>
      </trkpt>
      <trkpt lat="42.68498" lon="9.06447">
        <ele>63.584351</ele>
        <time>2011-09-11T13:52:40Z</time>
      </trkpt>
      <trkpt lat="42.68482" lon="9.06427">
        <ele>65.50708</ele>
        <time>2011-09-11T13:53:01Z</time>
      </trkpt>
      <trkpt lat="42.68474" lon="9.06418">
        <ele>68.871582</ele>
        <time>2011-09-11T13:53:12Z</time>
      </trkpt>
      <trkpt lat="42.68464" lon="9.06407">
        <ele>71.274902</ele>
        <time>2011-09-11T13:53:25Z</time>
      </trkpt>
      <trkpt lat="42.6845" lon="9.064">
        <ele>73.678223</ele>
        <time>2011-09-11T13:53:40Z</time>
      </trkpt>
      <trkpt lat="42.68423" lon="9.064">
        <ele>75.60083</ele>
        <time>2011-09-11T13:54:04Z</time>
      </trkpt>
      <trkpt lat="42.68413" lon="9.06394">
        <ele>78.484741</ele>
        <time>2011-09-11T13:54:14Z</time>
      </trkpt>
      <trkpt lat="42.68405" lon="9.06387">
        <ele>79.926636</ele>
        <time>2011-09-11T13:54:23Z</time>
      </trkpt>
      <trkpt lat="42.684" lon="9.06386">
        <ele>79.926636</ele>
        <time>2011-09-11T13:54:28Z</time>
      </trkpt>
      <trkpt lat="42.68381" lon="9.06382">
        <ele>80.407471</ele>
        <time>2011-09-11T13:54:45Z</time>
      </trkpt>
      <trkpt lat="42.68375" lon="9.06387">
        <ele>80.407471</ele>
        <time>2011-09-11T13:54:52Z</time>
      </trkpt>
      <trkpt lat="42.68369" lon="9.06388">
        <ele>79.926636</ele>
        <time>2011-09-11T13:54:58Z</time>
      </trkpt>
      <trkpt lat="42.6835" lon="9.06391">
        <ele>78.484741</ele>
        <time>2011-09-11T13:55:16Z</time>
      </trkpt>
      <trkpt lat="42.68347" lon="9.06388">
        <ele>77.523438</ele>
        <time>2011-09-11T13:55:20Z</time>
      </trkpt>
      <trkpt lat="42.68341" lon="9.06386">
        <ele>77.042847</ele>
        <time>2011-09-11T13:55:29Z</time>
      </trkpt>
      <trkpt lat="42.68336" lon="9.06383">
        <ele>75.60083</ele>
        <time>2011-09-11T13:55:34Z</time>
      </trkpt>
      <trkpt lat="42.68334" lon="9.06382">
        <ele>76.081421</ele>
        <time>2011-09-11T13:55:37Z</time>
      </trkpt>
      <trkpt lat="42.68312" lon="9.06382">
        <ele>73.197632</ele>
        <time>2011-09-11T13:55:57Z</time>
      </trkpt>
      <trkpt lat="42.68292" lon="9.06382">
        <ele>72.716919</ele>
        <time>2011-09-11T13:56:15Z</time>
      </trkpt>
      <trkpt lat="42.68271" lon="9.06368">
        <ele>70.794189</ele>
        <time>2011-09-11T13:56:37Z</time>
      </trkpt>
      <trkpt lat="42.68269" lon="9.06367">
        <ele>72.236206</ele>
        <time>2011-09-11T13:56:52Z</time>
      </trkpt>
      <trkpt lat="42.68264" lon="9.0637">
        <ele>70.794189</ele>
        <time>2011-09-11T13:57:05Z</time>
      </trkpt>
      <trkpt lat="42.68259" lon="9.06372">
        <ele>69.832886</ele>
        <time>2011-09-11T13:57:10Z</time>
      </trkpt>
      <trkpt lat="42.68246" lon="9.06376">
        <ele>67.910278</ele>
        <time>2011-09-11T13:57:26Z</time>
      </trkpt>
      <trkpt lat="42.68236" lon="9.06373">
        <ele>66.948975</ele>
        <time>2011-09-11T13:57:41Z</time>
      </trkpt>
      <trkpt lat="42.68222" lon="9.06367">
        <ele>64.065063</ele>
        <time>2011-09-11T13:58:01Z</time>
      </trkpt>
      <trkpt lat="42.68215" lon="9.06363">
        <ele>61.661743</ele>
        <time>2011-09-11T13:58:13Z</time>
      </trkpt>
      <trkpt lat="42.6821" lon="9.06362">
        <ele>61.18103</ele>
        <time>2011-09-11T13:58:30Z</time>
      </trkpt>
      <trkpt lat="42.68203" lon="9.0636">
        <ele>59.739136</ele>
        <time>2011-09-11T13:58:45Z</time>
      </trkpt>
      <trkpt lat="42.68194" lon="9.0636">
        <ele>58.77771</ele>
        <time>2011-09-11T13:59:00Z</time>
      </trkpt>
      <trkpt lat="42.68182" lon="9.0636">
        <ele>58.77771</ele>
        <time>2011-09-11T13:59:16Z</time>
      </trkpt>
      <trkpt lat="42.68173" lon="9.06362">
        <ele>56.374512</ele>
        <time>2011-09-11T13:59:30Z</time>
      </trkpt>
      <trkpt lat="42.68161" lon="9.06362">
        <ele>53.971191</ele>
        <time>2011-09-11T13:59:46Z</time>
      </trkpt>
      <trkpt lat="42.68148" lon="9.06362">
        <ele>51.567871</ele>
        <time>2011-09-11T14:00:03Z</time>
      </trkpt>
      <trkpt lat="42.68135" lon="9.06361">
        <ele>49.164551</ele>
        <time>2011-09-11T14:00:21Z</time>
      </trkpt>
      <trkpt lat="42.68127" lon="9.06365">
        <ele>47.722534</ele>
        <time>2011-09-11T14:00:31Z</time>
      </trkpt>
      <trkpt lat="42.68108" lon="9.06377">
        <ele>44.838623</ele>
        <time>2011-09-11T14:00:52Z</time>
      </trkpt>
      <trkpt lat="42.68096" lon="9.06376">
        <ele>43.396606</ele>
        <time>2011-09-11T14:01:08Z</time>
      </trkpt>
      <trkpt lat="42.68081" lon="9.06378">
        <ele>39.55127</ele>
        <time>2011-09-11T14:01:26Z</time>
      </trkpt>
      <trkpt lat="42.68061" lon="9.06389">
        <ele>39.070679</ele>
        <time>2011-09-11T14:01:45Z</time>
      </trkpt>
      <trkpt lat="42.68052" lon="9.064">
        <ele>38.590088</ele>
        <time>2011-09-11T14:01:55Z</time>
      </trkpt>
      <trkpt lat="42.68031" lon="9.06418">
        <ele>39.55127</ele>
        <time>2011-09-11T14:02:16Z</time>
      </trkpt>
      <trkpt lat="42.68017" lon="9.06438">
        <ele>40.993408</ele>
        <time>2011-09-11T14:02:35Z</time>
      </trkpt>
      <trkpt lat="42.68005" lon="9.0646">
        <ele>39.55127</ele>
        <time>2011-09-11T14:02:54Z</time>
      </trkpt>
      <trkpt lat="42.67995" lon="9.06477">
        <ele>37.628662</ele>
        <time>2011-09-11T14:03:10Z</time>
      </trkpt>
      <trkpt lat="42.67986" lon="9.06497">
        <ele>38.109375</ele>
        <time>2011-09-11T14:03:26Z</time>
      </trkpt>
      <trkpt lat="42.67984" lon="9.06507">
        <ele>37.148071</ele>
        <time>2011-09-11T14:03:32Z</time>
      </trkpt>
      <trkpt lat="42.67975" lon="9.06543">
        <ele>37.148071</ele>
        <time>2011-09-11T14:03:55Z</time>
      </trkpt>
      <trkpt lat="42.67969" lon="9.06547">
        <ele>37.148071</ele>
        <time>2011-09-11T14:04:02Z</time>
      </trkpt>
      <trkpt lat="42.67962" lon="9.06554">
        <ele>36.186768</ele>
        <time>2011-09-11T14:04:11Z</time>
      </trkpt>
      <trkpt lat="42.67955" lon="9.06563">
        <ele>34.744873</ele>
        <time>2011-09-11T14:04:24Z</time>
      </trkpt>
      <trkpt lat="42.67947" lon="9.06566">
        <ele>32.822266</ele>
        <time>2011-09-11T14:04:36Z</time>
      </trkpt>
      <trkpt lat="42.67943" lon="9.06569">
        <ele>32.341553</ele>
        <time>2011-09-11T14:04:41Z</time>
      </trkpt>
      <trkpt lat="42.67933" lon="9.06578">
        <ele>29.93811</ele>
        <time>2011-09-11T14:04:54Z</time>
      </trkpt>
      <trkpt lat="42.67921" lon="9.0658">
        <ele>27.534912</ele>
        <time>2011-09-11T14:05:09Z</time>
      </trkpt>
      <trkpt lat="42.67922" lon="9.06585">
        <ele>26.092896</ele>
        <time>2011-09-11T14:05:15Z</time>
      </trkpt>
      <trkpt lat="42.67923" lon="9.06591">
        <ele>25.131714</ele>
        <time>2011-09-11T14:05:21Z</time>
      </trkpt>
      <trkpt lat="42.6792" lon="9.06597">
        <ele>24.651001</ele>
        <time>2011-09-11T14:05:27Z</time>
      </trkpt>
      <trkpt lat="42.6791" lon="9.06598">
        <ele>25.131714</ele>
        <time>2011-09-11T14:05:40Z</time>
      </trkpt>
      <trkpt lat="42.67897" lon="9.06591">
        <ele>25.131714</ele>
        <time>2011-09-11T14:05:52Z</time>
      </trkpt>
      <trkpt lat="42.67893" lon="9.06588">
        <ele>25.612305</ele>
        <time>2011-09-11T14:05:56Z</time>
      </trkpt>
      <trkpt lat="42.67887" lon="9.06578">
        <ele>25.131714</ele>
        <time>2011-09-11T14:06:05Z</time>
      </trkpt>
      <trkpt lat="42.67883" lon="9.06558">
        <ele>25.131714</ele>
        <time>2011-09-11T14:06:20Z</time>
      </trkpt>
      <trkpt lat="42.67883" lon="9.06556">
        <ele>25.131714</ele>
        <time>2011-09-11T14:06:22Z</time>
      </trkpt>
      <trkpt lat="42.67889" lon="9.06532">
        <ele>27.534912</ele>
        <time>2011-09-11T14:06:37Z</time>
      </trkpt>
      <trkpt lat="42.67888" lon="9.06513">
        <ele>29.45752</ele>
        <time>2011-09-11T14:06:51Z</time>
      </trkpt>
      <trkpt lat="42.67891" lon="9.0649">
        <ele>31.860718</ele>
        <time>2011-09-11T14:07:08Z</time>
      </trkpt>
      <trkpt lat="42.67896" lon="9.06474">
        <ele>34.744873</ele>
        <time>2011-09-11T14:07:22Z</time>
      </trkpt>
      <trkpt lat="42.67896" lon="9.06452">
        <ele>36.66748</ele>
        <time>2011-09-11T14:07:38Z</time>
      </trkpt>
      <trkpt lat="42.67895" lon="9.0644">
        <ele>36.66748</ele>
        <time>2011-09-11T14:07:46Z</time>
      </trkpt>
      <trkpt lat="42.67894" lon="9.06438">
        <ele>37.628662</ele>
        <time>2011-09-11T14:07:48Z</time>
      </trkpt>
      <trkpt lat="42.67891" lon="9.06435">
        <ele>38.109375</ele>
        <time>2011-09-11T14:07:52Z</time>
      </trkpt>
      <trkpt lat="42.67881" lon="9.06413">
        <ele>39.55127</ele>
        <time>2011-09-11T14:08:10Z</time>
      </trkpt>
      <trkpt lat="42.67878" lon="9.0641">
        <ele>40.032104</ele>
        <time>2011-09-11T14:08:14Z</time>
      </trkpt>
      <trkpt lat="42.67862" lon="9.06405">
        <ele>39.070679</ele>
        <time>2011-09-11T14:08:30Z</time>
      </trkpt>
      <trkpt lat="42.67837" lon="9.06405">
        <ele>37.148071</ele>
        <time>2011-09-11T14:08:53Z</time>
      </trkpt>
      <trkpt lat="42.67835" lon="9.06405">
        <ele>36.66748</ele>
        <time>2011-09-11T14:08:56Z</time>
      </trkpt>
      <trkpt lat="42.67812" lon="9.06417">
        <ele>35.706055</ele>
        <time>2011-09-11T14:09:18Z</time>
      </trkpt>
      <trkpt lat="42.67811" lon="9.06418">
        <ele>35.706055</ele>
        <time>2011-09-11T14:09:20Z</time>
      </trkpt>
      <trkpt lat="42.6779" lon="9.06437">
        <ele>34.26416</ele>
        <time>2011-09-11T14:09:42Z</time>
      </trkpt>
      <trkpt lat="42.67773" lon="9.06453">
        <ele>34.26416</ele>
        <time>2011-09-11T14:10:00Z</time>
      </trkpt>
      <trkpt lat="42.6777" lon="9.06453">
        <ele>34.26416</ele>
        <time>2011-09-11T14:10:03Z</time>
      </trkpt>
      <trkpt lat="42.67753" lon="9.06467">
        <ele>32.822266</ele>
        <time>2011-09-11T14:10:19Z</time>
      </trkpt>
      <trkpt lat="42.67738" lon="9.06483">
        <ele>32.341553</ele>
        <time>2011-09-11T14:10:35Z</time>
      </trkpt>
      <trkpt lat="42.67732" lon="9.06491">
        <ele>33.302856</ele>
        <time>2011-09-11T14:10:42Z</time>
      </trkpt>
      <trkpt lat="42.67729" lon="9.06498">
        <ele>32.341553</ele>
        <time>2011-09-11T14:10:48Z</time>
      </trkpt>
      <trkpt lat="42.67713" lon="9.06511">
        <ele>31.860718</ele>
        <time>2011-09-11T14:11:04Z</time>
      </trkpt>
      <trkpt lat="42.67697" lon="9.06523">
        <ele>31.860718</ele>
        <time>2011-09-11T14:11:20Z</time>
      </trkpt>
      <trkpt lat="42.67676" lon="9.06541">
        <ele>33.302856</ele>
        <time>2011-09-11T14:11:40Z</time>
      </trkpt>
      <trkpt lat="42.6766" lon="9.0656">
        <ele>33.783447</ele>
        <time>2011-09-11T14:11:59Z</time>
      </trkpt>
      <trkpt lat="42.67658" lon="9.06567">
        <ele>34.26416</ele>
        <time>2011-09-11T14:12:04Z</time>
      </trkpt>
      <trkpt lat="42.67657" lon="9.06574">
        <ele>35.225464</ele>
        <time>2011-09-11T14:12:19Z</time>
      </trkpt>
      <trkpt lat="42.67655" lon="9.06573">
        <ele>35.225464</ele>
        <time>2011-09-11T14:12:26Z</time>
      </trkpt>
      <trkpt lat="42.67651" lon="9.06574">
        <ele>35.706055</ele>
        <time>2011-09-11T14:12:30Z</time>
      </trkpt>
      <trkpt lat="42.67637" lon="9.06577">
        <ele>35.706055</ele>
        <time>2011-09-11T14:12:43Z</time>
      </trkpt>
      <trkpt lat="42.67632" lon="9.06571">
        <ele>35.225464</ele>
        <time>2011-09-11T14:12:49Z</time>
      </trkpt>
      <trkpt lat="42.67625" lon="9.06557">
        <ele>32.341553</ele>
        <time>2011-09-11T14:13:01Z</time>
      </trkpt>
      <trkpt lat="42.6761" lon="9.06551">
        <ele>30.418823</ele>
        <time>2011-09-11T14:13:15Z</time>
      </trkpt>
      <trkpt lat="42.67604" lon="9.06548">
        <ele>29.93811</ele>
        <time>2011-09-11T14:13:20Z</time>
      </trkpt>
      <trkpt lat="42.67601" lon="9.06544">
        <ele>28.976929</ele>
        <time>2011-09-11T14:13:34Z</time>
      </trkpt>
      <trkpt lat="42.67596" lon="9.06528">
        <ele>26.573608</ele>
        <time>2011-09-11T14:13:44Z</time>
      </trkpt>
      <trkpt lat="42.67592" lon="9.06494">
        <ele>23.208984</ele>
        <time>2011-09-11T14:14:02Z</time>
      </trkpt>
      <trkpt lat="42.67588" lon="9.06472">
        <ele>21.286377</ele>
        <time>2011-09-11T14:14:14Z</time>
      </trkpt>
      <trkpt lat="42.67582" lon="9.06451">
        <ele>19.36377</ele>
        <time>2011-09-11T14:14:26Z</time>
      </trkpt>
      <trkpt lat="42.67581" lon="9.06448">
        <ele>19.36377</ele>
        <time>2011-09-11T14:14:28Z</time>
      </trkpt>
      <trkpt lat="42.67574" lon="9.06453">
        <ele>17.921753</ele>
        <time>2011-09-11T14:14:39Z</time>
      </trkpt>
      <trkpt lat="42.67568" lon="9.06451">
        <ele>19.36377</ele>
        <time>2011-09-11T14:14:46Z</time>
      </trkpt>
      <trkpt lat="42.67562" lon="9.06446">
        <ele>18.883057</ele>
        <time>2011-09-11T14:14:53Z</time>
      </trkpt>
      <trkpt lat="42.67541" lon="9.06433">
        <ele>19.84436</ele>
        <time>2011-09-11T14:15:10Z</time>
      </trkpt>
      <trkpt lat="42.67535" lon="9.06421">
        <ele>21.286377</ele>
        <time>2011-09-11T14:15:24Z</time>
      </trkpt>
      <trkpt lat="42.67533" lon="9.06417">
        <ele>21.286377</ele>
        <time>2011-09-11T14:15:27Z</time>
      </trkpt>
      <trkpt lat="42.67522" lon="9.06414">
        <ele>21.766968</ele>
        <time>2011-09-11T14:15:40Z</time>
      </trkpt>
      <trkpt lat="42.67509" lon="9.06408">
        <ele>21.766968</ele>
        <time>2011-09-11T14:15:55Z</time>
      </trkpt>
      <trkpt lat="42.67505" lon="9.06405">
        <ele>21.766968</ele>
        <time>2011-09-11T14:16:02Z</time>
      </trkpt>
      <trkpt lat="42.67499" lon="9.06397">
        <ele>19.36377</ele>
        <time>2011-09-11T14:16:16Z</time>
      </trkpt>
      <trkpt lat="42.67498" lon="9.06392">
        <ele>17.921753</ele>
        <time>2011-09-11T14:16:27Z</time>
      </trkpt>
      <trkpt lat="42.67497" lon="9.06387">
        <ele>16.960449</ele>
        <time>2011-09-11T14:16:32Z</time>
      </trkpt>
      <trkpt lat="42.67489" lon="9.06376">
        <ele>16.479736</ele>
        <time>2011-09-11T14:16:43Z</time>
      </trkpt>
      <trkpt lat="42.6748" lon="9.06372">
        <ele>16.479736</ele>
        <time>2011-09-11T14:16:52Z</time>
      </trkpt>
      <trkpt lat="42.67465" lon="9.06365">
        <ele>16.479736</ele>
        <time>2011-09-11T14:17:07Z</time>
      </trkpt>
      <trkpt lat="42.67451" lon="9.06362">
        <ele>16.479736</ele>
        <time>2011-09-11T14:17:19Z</time>
      </trkpt>
      <trkpt lat="42.67445" lon="9.06352">
        <ele>16.479736</ele>
        <time>2011-09-11T14:17:28Z</time>
      </trkpt>
      <trkpt lat="42.67439" lon="9.06349">
        <ele>15.518433</ele>
        <time>2011-09-11T14:17:33Z</time>
      </trkpt>
      <trkpt lat="42.67432" lon="9.06351">
        <ele>15.03772</ele>
        <time>2011-09-11T14:17:39Z</time>
      </trkpt>
      <trkpt lat="42.6741" lon="9.06354">
        <ele>15.03772</ele>
        <time>2011-09-11T14:17:56Z</time>
      </trkpt>
      <trkpt lat="42.67387" lon="9.06348">
        <ele>15.03772</ele>
        <time>2011-09-11T14:18:14Z</time>
      </trkpt>
      <trkpt lat="42.67363" lon="9.06337">
        <ele>15.03772</ele>
        <time>2011-09-11T14:18:33Z</time>
      </trkpt>
      <trkpt lat="42.67339" lon="9.06341">
        <ele>14.557007</ele>
        <time>2011-09-11T14:18:52Z</time>
      </trkpt>
      <trkpt lat="42.67324" lon="9.06339">
        <ele>14.076416</ele>
        <time>2011-09-11T14:19:05Z</time>
      </trkpt>
      <trkpt lat="42.67313" lon="9.0633">
        <ele>13.115112</ele>
        <time>2011-09-11T14:19:15Z</time>
      </trkpt>
      <trkpt lat="42.67295" lon="9.06317">
        <ele>12.634399</ele>
        <time>2011-09-11T14:19:33Z</time>
      </trkpt>
      <trkpt lat="42.67269" lon="9.06311">
        <ele>11.192505</ele>
        <time>2011-09-11T14:19:54Z</time>
      </trkpt>
      <trkpt lat="42.67257" lon="9.06306">
        <ele>8.789185</ele>
        <time>2011-09-11T14:20:08Z</time>
      </trkpt>
      <trkpt lat="42.67253" lon="9.06306">
        <ele>8.308594</ele>
        <time>2011-09-11T14:20:11Z</time>
      </trkpt>
      <trkpt lat="42.67235" lon="9.063">
        <ele>6.866455</ele>
        <time>2011-09-11T14:20:27Z</time>
      </trkpt>
      <trkpt lat="42.67224" lon="9.06291">
        <ele>5.424561</ele>
        <time>2011-09-11T14:20:38Z</time>
      </trkpt>
      <trkpt lat="42.6722" lon="9.06286">
        <ele>5.905273</ele>
        <time>2011-09-11T14:20:42Z</time>
      </trkpt>
      <trkpt lat="42.672" lon="9.0627">
        <ele>5.905273</ele>
        <time>2011-09-11T14:20:57Z</time>
      </trkpt>
      <trkpt lat="42.67181" lon="9.06253">
        <ele>5.905273</ele>
        <time>2011-09-11T14:21:13Z</time>
      </trkpt>
      <trkpt lat="42.67178" lon="9.0622">
        <ele>6.866455</ele>
        <time>2011-09-11T14:21:32Z</time>
      </trkpt>
      <trkpt lat="42.67172" lon="9.0619">
        <ele>8.308594</ele>
        <time>2011-09-11T14:21:50Z</time>
      </trkpt>
      <trkpt lat="42.67169" lon="9.06169">
        <ele>8.308594</ele>
        <time>2011-09-11T14:22:04Z</time>
      </trkpt>
      <trkpt lat="42.67168" lon="9.06136">
        <ele>7.347168</ele>
        <time>2011-09-11T14:22:23Z</time>
      </trkpt>
      <trkpt lat="42.6716" lon="9.06107">
        <ele>8.308594</ele>
        <time>2011-09-11T14:22:41Z</time>
      </trkpt>
      <trkpt lat="42.6716" lon="9.06106">
        <ele>8.308594</ele>
        <time>2011-09-11T14:22:42Z</time>
      </trkpt>
      <trkpt lat="42.6716" lon="9.06099">
        <ele>7.827881</ele>
        <time>2011-09-11T14:22:46Z</time>
      </trkpt>
      <trkpt lat="42.67152" lon="9.0607">
        <ele>8.308594</ele>
        <time>2011-09-11T14:23:04Z</time>
      </trkpt>
      <trkpt lat="42.67137" lon="9.06058">
        <ele>8.789185</ele>
        <time>2011-09-11T14:23:19Z</time>
      </trkpt>
      <trkpt lat="42.67123" lon="9.06043">
        <ele>10.711792</ele>
        <time>2011-09-11T14:23:38Z</time>
      </trkpt>
      <trkpt lat="42.67117" lon="9.06031">
        <ele>13.595825</ele>
        <time>2011-09-11T14:23:51Z</time>
      </trkpt>
      <trkpt lat="42.67104" lon="9.06015">
        <ele>15.999023</ele>
        <time>2011-09-11T14:24:08Z</time>
      </trkpt>
      <trkpt lat="42.6709" lon="9.05994">
        <ele>15.03772</ele>
        <time>2011-09-11T14:24:27Z</time>
      </trkpt>
      <trkpt lat="42.67087" lon="9.05989">
        <ele>14.557007</ele>
        <time>2011-09-11T14:24:32Z</time>
      </trkpt>
      <trkpt lat="42.67082" lon="9.05983">
        <ele>15.03772</ele>
        <time>2011-09-11T14:24:38Z</time>
      </trkpt>
      <trkpt lat="42.67079" lon="9.05968">
        <ele>14.557007</ele>
        <time>2011-09-11T14:24:47Z</time>
      </trkpt>
      <trkpt lat="42.67077" lon="9.05959">
        <ele>14.557007</ele>
        <time>2011-09-11T14:24:52Z</time>
      </trkpt>
      <trkpt lat="42.67072" lon="9.05926">
        <ele>14.076416</ele>
        <time>2011-09-11T14:25:10Z</time>
      </trkpt>
      <trkpt lat="42.67052" lon="9.05906">
        <ele>14.557007</ele>
        <time>2011-09-11T14:25:29Z</time>
      </trkpt>
      <trkpt lat="42.67021" lon="9.05891">
        <ele>15.518433</ele>
        <time>2011-09-11T14:25:54Z</time>
      </trkpt>
      <trkpt lat="42.6702" lon="9.05891">
        <ele>15.518433</ele>
        <time>2011-09-11T14:25:55Z</time>
      </trkpt>
      <trkpt lat="42.67" lon="9.05881">
        <ele>14.557007</ele>
        <time>2011-09-11T14:26:12Z</time>
      </trkpt>
      <trkpt lat="42.66989" lon="9.05863">
        <ele>15.999023</ele>
        <time>2011-09-11T14:26:27Z</time>
      </trkpt>
      <trkpt lat="42.66977" lon="9.05836">
        <ele>17.921753</ele>
        <time>2011-09-11T14:26:46Z</time>
      </trkpt>
      <trkpt lat="42.66953" lon="9.05817">
        <ele>18.402344</ele>
        <time>2011-09-11T14:27:07Z</time>
      </trkpt>
      <trkpt lat="42.66936" lon="9.05811">
        <ele>18.883057</ele>
        <time>2011-09-11T14:27:21Z</time>
      </trkpt>
      <trkpt lat="42.66921" lon="9.05823">
        <ele>19.36377</ele>
        <time>2011-09-11T14:27:36Z</time>
      </trkpt>
      <trkpt lat="42.66911" lon="9.05849">
        <ele>19.36377</ele>
        <time>2011-09-11T14:27:54Z</time>
      </trkpt>
      <trkpt lat="42.66903" lon="9.05872">
        <ele>19.36377</ele>
        <time>2011-09-11T14:28:09Z</time>
      </trkpt>
      <trkpt lat="42.66901" lon="9.0588">
        <ele>18.883057</ele>
        <time>2011-09-11T14:28:14Z</time>
      </trkpt>
      <trkpt lat="42.66895" lon="9.05909">
        <ele>18.883057</ele>
        <time>2011-09-11T14:28:31Z</time>
      </trkpt>
      <trkpt lat="42.66894" lon="9.05911">
        <ele>18.402344</ele>
        <time>2011-09-11T14:28:33Z</time>
      </trkpt>
      <trkpt lat="42.66892" lon="9.05919">
        <ele>18.402344</ele>
        <time>2011-09-11T14:28:38Z</time>
      </trkpt>
      <trkpt lat="42.66871" lon="9.05939">
        <ele>18.402344</ele>
        <time>2011-09-11T14:28:58Z</time>
      </trkpt>
      <trkpt lat="42.66857" lon="9.05956">
        <ele>18.402344</ele>
        <time>2011-09-11T14:29:14Z</time>
      </trkpt>
      <trkpt lat="42.6684" lon="9.05984">
        <ele>19.36377</ele>
        <time>2011-09-11T14:29:37Z</time>
      </trkpt>
      <trkpt lat="42.6683" lon="9.06006">
        <ele>19.36377</ele>
        <time>2011-09-11T14:29:55Z</time>
      </trkpt>
      <trkpt lat="42.66826" lon="9.06013">
        <ele>19.84436</ele>
        <time>2011-09-11T14:30:01Z</time>
      </trkpt>
      <trkpt lat="42.66806" lon="9.06016">
        <ele>18.402344</ele>
        <time>2011-09-11T14:30:20Z</time>
      </trkpt>
      <trkpt lat="42.66787" lon="9.06016">
        <ele>15.518433</ele>
        <time>2011-09-11T14:30:37Z</time>
      </trkpt>
      <trkpt lat="42.66776" lon="9.06015">
        <ele>14.076416</ele>
        <time>2011-09-11T14:30:47Z</time>
      </trkpt>
      <trkpt lat="42.66774" lon="9.06014">
        <ele>13.595825</ele>
        <time>2011-09-11T14:30:49Z</time>
      </trkpt>
      <trkpt lat="42.6676" lon="9.06014">
        <ele>10.711792</ele>
        <time>2011-09-11T14:31:05Z</time>
      </trkpt>
      <trkpt lat="42.66757" lon="9.06016">
        <ele>10.711792</ele>
        <time>2011-09-11T14:31:08Z</time>
      </trkpt>
      <trkpt lat="42.6675" lon="9.06029">
        <ele>10.231201</ele>
        <time>2011-09-11T14:31:22Z</time>
      </trkpt>
      <trkpt lat="42.66745" lon="9.06021">
        <ele>9.269897</ele>
        <time>2011-09-11T14:31:28Z</time>
      </trkpt>
      <trkpt lat="42.66727" lon="9.06004">
        <ele>7.347168</ele>
        <time>2011-09-11T14:31:46Z</time>
      </trkpt>
      <trkpt lat="42.66723" lon="9.06">
        <ele>7.347168</ele>
        <time>2011-09-11T14:31:52Z</time>
      </trkpt>
      <trkpt lat="42.66716" lon="9.05998">
        <ele>5.424561</ele>
        <time>2011-09-11T14:32:01Z</time>
      </trkpt>
      <trkpt lat="42.66707" lon="9.06006">
        <ele>4.943848</ele>
        <time>2011-09-11T14:32:11Z</time>
      </trkpt>
      <trkpt lat="42.66695" lon="9.06017">
        <ele>8.308594</ele>
        <time>2011-09-11T14:32:27Z</time>
      </trkpt>
      <trkpt lat="42.66694" lon="9.06018">
        <ele>8.308594</ele>
        <time>2011-09-11T14:32:28Z</time>
      </trkpt>
      <trkpt lat="42.66679" lon="9.0602">
        <ele>11.673218</ele>
        <time>2011-09-11T14:32:44Z</time>
      </trkpt>
      <trkpt lat="42.66674" lon="9.06019">
        <ele>11.192505</ele>
        <time>2011-09-11T14:32:49Z</time>
      </trkpt>
      <trkpt lat="42.66656" lon="9.06029">
        <ele>10.711792</ele>
        <time>2011-09-11T14:33:06Z</time>
      </trkpt>
      <trkpt lat="42.66649" lon="9.06042">
        <ele>10.711792</ele>
        <time>2011-09-11T14:33:17Z</time>
      </trkpt>
      <trkpt lat="42.66647" lon="9.0606">
        <ele>9.269897</ele>
        <time>2011-09-11T14:33:31Z</time>
      </trkpt>
      <trkpt lat="42.6665" lon="9.06063">
        <ele>10.231201</ele>
        <time>2011-09-11T14:33:34Z</time>
      </trkpt>
      <trkpt lat="42.6665" lon="9.06068">
        <ele>9.75061</ele>
        <time>2011-09-11T14:33:38Z</time>
      </trkpt>
      <trkpt lat="42.66644" lon="9.06093">
        <ele>9.75061</ele>
        <time>2011-09-11T14:33:55Z</time>
      </trkpt>
      <trkpt lat="42.66643" lon="9.06103">
        <ele>9.75061</ele>
        <time>2011-09-11T14:34:01Z</time>
      </trkpt>
      <trkpt lat="42.6665" lon="9.06104">
        <ele>11.192505</ele>
        <time>2011-09-11T14:34:09Z</time>
      </trkpt>
      <trkpt lat="42.66659" lon="9.06107">
        <ele>13.115112</ele>
        <time>2011-09-11T14:34:19Z</time>
      </trkpt>
      <trkpt lat="42.6666" lon="9.06107">
        <ele>13.115112</ele>
        <time>2011-09-11T14:34:20Z</time>
      </trkpt>
      <trkpt lat="42.66664" lon="9.06107">
        <ele>14.076416</ele>
        <time>2011-09-11T14:34:24Z</time>
      </trkpt>
      <trkpt lat="42.66673" lon="9.06111">
        <ele>15.518433</ele>
        <time>2011-09-11T14:34:34Z</time>
      </trkpt>
      <trkpt lat="42.66678" lon="9.0612">
        <ele>15.518433</ele>
        <time>2011-09-11T14:34:42Z</time>
      </trkpt>
      <trkpt lat="42.66682" lon="9.06129">
        <ele>16.479736</ele>
        <time>2011-09-11T14:34:48Z</time>
      </trkpt>
      <trkpt lat="42.66687" lon="9.06148">
        <ele>16.479736</ele>
        <time>2011-09-11T14:35:02Z</time>
      </trkpt>
      <trkpt lat="42.66688" lon="9.0615">
        <ele>16.960449</ele>
        <time>2011-09-11T14:35:03Z</time>
      </trkpt>
      <trkpt lat="42.66688" lon="9.06155">
        <ele>16.960449</ele>
        <time>2011-09-11T14:35:06Z</time>
      </trkpt>
      <trkpt lat="42.66686" lon="9.06162">
        <ele>16.479736</ele>
        <time>2011-09-11T14:35:11Z</time>
      </trkpt>
      <trkpt lat="42.66682" lon="9.06167">
        <ele>14.557007</ele>
        <time>2011-09-11T14:35:17Z</time>
      </trkpt>
      <trkpt lat="42.6668" lon="9.06171">
        <ele>13.115112</ele>
        <time>2011-09-11T14:35:21Z</time>
      </trkpt>
      <trkpt lat="42.66673" lon="9.06174">
        <ele>14.557007</ele>
        <time>2011-09-11T14:35:28Z</time>
      </trkpt>
      <trkpt lat="42.66658" lon="9.06163">
        <ele>13.595825</ele>
        <time>2011-09-11T14:35:44Z</time>
      </trkpt>
      <trkpt lat="42.66654" lon="9.06163">
        <ele>14.557007</ele>
        <time>2011-09-11T14:35:48Z</time>
      </trkpt>
      <trkpt lat="42.66647" lon="9.06157">
        <ele>12.634399</ele>
        <time>2011-09-11T14:35:56Z</time>
      </trkpt>
      <trkpt lat="42.66642" lon="9.06147">
        <ele>12.153809</ele>
        <time>2011-09-11T14:36:08Z</time>
      </trkpt>
      <trkpt lat="42.66635" lon="9.06144">
        <ele>9.269897</ele>
        <time>2011-09-11T14:36:21Z</time>
      </trkpt>
      <trkpt lat="42.66632" lon="9.06143">
        <ele>8.789185</ele>
        <time>2011-09-11T14:36:25Z</time>
      </trkpt>
      <trkpt lat="42.6663" lon="9.06143">
        <ele>8.789185</ele>
        <time>2011-09-11T14:36:27Z</time>
      </trkpt>
      <trkpt lat="42.66615" lon="9.06152">
        <ele>8.789185</ele>
        <time>2011-09-11T14:36:43Z</time>
      </trkpt>
      <trkpt lat="42.66593" lon="9.06165">
        <ele>10.711792</ele>
        <time>2011-09-11T14:37:02Z</time>
      </trkpt>
      <trkpt lat="42.66584" lon="9.06173">
        <ele>9.269897</ele>
        <time>2011-09-11T14:37:12Z</time>
      </trkpt>
      <trkpt lat="42.66581" lon="9.06176">
        <ele>8.308594</ele>
        <time>2011-09-11T14:37:17Z</time>
      </trkpt>
      <trkpt lat="42.66564" lon="9.06184">
        <ele>4.943848</ele>
        <time>2011-09-11T14:37:35Z</time>
      </trkpt>
      <trkpt lat="42.66537" lon="9.06191">
        <ele>3.982666</ele>
        <time>2011-09-11T14:37:58Z</time>
      </trkpt>
      <trkpt lat="42.66512" lon="9.06194">
        <ele>3.501953</ele>
        <time>2011-09-11T14:38:20Z</time>
      </trkpt>
      <trkpt lat="42.66484" lon="9.0619">
        <ele>3.982666</ele>
        <time>2011-09-11T14:38:43Z</time>
      </trkpt>
      <trkpt lat="42.66482" lon="9.06189">
        <ele>3.982666</ele>
        <time>2011-09-11T14:38:45Z</time>
      </trkpt>
      <trkpt lat="42.66456" lon="9.06177">
        <ele>3.02124</ele>
        <time>2011-09-11T14:39:07Z</time>
      </trkpt>
      <trkpt lat="42.6643" lon="9.06161">
        <ele>3.02124</ele>
        <time>2011-09-11T14:39:31Z</time>
      </trkpt>
      <trkpt lat="42.66406" lon="9.06145">
        <ele>3.02124</ele>
        <time>2011-09-11T14:39:53Z</time>
      </trkpt>
      <trkpt lat="42.66385" lon="9.06133">
        <ele>2.060059</ele>
        <time>2011-09-11T14:40:12Z</time>
      </trkpt>
      <trkpt lat="42.66358" lon="9.06124">
        <ele>2.060059</ele>
        <time>2011-09-11T14:40:33Z</time>
      </trkpt>
      <trkpt lat="42.66328" lon="9.06115">
        <ele>2.540649</ele>
        <time>2011-09-11T14:40:55Z</time>
      </trkpt>
      <trkpt lat="42.66304" lon="9.06097">
        <ele>2.540649</ele>
        <time>2011-09-11T14:41:16Z</time>
      </trkpt>
      <trkpt lat="42.66285" lon="9.06086">
        <ele>2.540649</ele>
        <time>2011-09-11T14:41:33Z</time>
      </trkpt>
      <trkpt lat="42.66259" lon="9.06072">
        <ele>2.060059</ele>
        <time>2011-09-11T14:41:55Z</time>
      </trkpt>
      <trkpt lat="42.66237" lon="9.06063">
        <ele>2.540649</ele>
        <time>2011-09-11T14:42:13Z</time>
      </trkpt>
      <trkpt lat="42.66211" lon="9.06051">
        <ele>2.540649</ele>
        <time>2011-09-11T14:42:34Z</time>
      </trkpt>
      <trkpt lat="42.66182" lon="9.06039">
        <ele>2.540649</ele>
        <time>2011-09-11T14:42:57Z</time>
      </trkpt>
      <trkpt lat="42.66159" lon="9.06022">
        <ele>2.540649</ele>
        <time>2011-09-11T14:43:18Z</time>
      </trkpt>
      <trkpt lat="42.66137" lon="9.06004">
        <ele>2.540649</ele>
        <time>2011-09-11T14:43:39Z</time>
      </trkpt>
      <trkpt lat="42.6613" lon="9.06">
        <ele>2.540649</ele>
        <time>2011-09-11T14:43:45Z</time>
      </trkpt>
      <trkpt lat="42.66121" lon="9.05997">
        <ele>2.060059</ele>
        <time>2011-09-11T14:43:52Z</time>
      </trkpt>
      <trkpt lat="42.66095" lon="9.05981">
        <ele>2.540649</ele>
        <time>2011-09-11T14:44:14Z</time>
      </trkpt>
      <trkpt lat="42.66074" lon="9.05964">
        <ele>2.540649</ele>
        <time>2011-09-11T14:44:34Z</time>
      </trkpt>
      <trkpt lat="42.6605" lon="9.05956">
        <ele>3.02124</ele>
        <time>2011-09-11T14:44:55Z</time>
      </trkpt>
      <trkpt lat="42.66034" lon="9.05947">
        <ele>3.501953</ele>
        <time>2011-09-11T14:45:11Z</time>
      </trkpt>
      <trkpt lat="42.66016" lon="9.05935">
        <ele>3.982666</ele>
        <time>2011-09-11T14:45:30Z</time>
      </trkpt>
      <trkpt lat="42.65993" lon="9.0592">
        <ele>4.463257</ele>
        <time>2011-09-11T14:45:53Z</time>
      </trkpt>
      <trkpt lat="42.6597" lon="9.05903">
        <ele>4.463257</ele>
        <time>2011-09-11T14:46:17Z</time>
      </trkpt>
      <trkpt lat="42.65946" lon="9.05887">
        <ele>4.463257</ele>
        <time>2011-09-11T14:46:40Z</time>
      </trkpt>
      <trkpt lat="42.65923" lon="9.05873">
        <ele>3.501953</ele>
        <time>2011-09-11T14:47:01Z</time>
      </trkpt>
      <trkpt lat="42.6591" lon="9.05872">
        <ele>3.02124</ele>
        <time>2011-09-11T14:47:11Z</time>
      </trkpt>
      <trkpt lat="42.65901" lon="9.05884">
        <ele>3.02124</ele>
        <time>2011-09-11T14:47:21Z</time>
      </trkpt>
      <trkpt lat="42.65899" lon="9.05892">
        <ele>3.02124</ele>
        <time>2011-09-11T14:47:26Z</time>
      </trkpt>
      <trkpt lat="42.65897" lon="9.05895">
        <ele>3.02124</ele>
        <time>2011-09-11T14:47:28Z</time>
      </trkpt>
      <trkpt lat="42.65893" lon="9.05899">
        <ele>3.501953</ele>
        <time>2011-09-11T14:47:33Z</time>
      </trkpt>
      <trkpt lat="42.65887" lon="9.05914">
        <ele>3.02124</ele>
        <time>2011-09-11T14:47:47Z</time>
      </trkpt>
      <trkpt lat="42.65886" lon="9.05915">
        <ele>3.501953</ele>
        <time>2011-09-11T14:47:48Z</time>
      </trkpt>
      <trkpt lat="42.65885" lon="9.05921">
        <ele>3.02124</ele>
        <time>2011-09-11T14:47:52Z</time>
      </trkpt>
      <trkpt lat="42.6588" lon="9.05936">
        <ele>6.385864</ele>
        <time>2011-09-11T14:48:07Z</time>
      </trkpt>
      <trkpt lat="42.65877" lon="9.0594">
        <ele>7.827881</ele>
        <time>2011-09-11T14:48:20Z</time>
      </trkpt>
      <trkpt lat="42.65879" lon="9.05942">
        <ele>8.789185</ele>
        <time>2011-09-11T14:48:37Z</time>
      </trkpt>
      <trkpt lat="42.65876" lon="9.05956">
        <ele>10.231201</ele>
        <time>2011-09-11T14:48:50Z</time>
      </trkpt>
      <trkpt lat="42.65872" lon="9.05965">
        <ele>13.595825</ele>
        <time>2011-09-11T14:49:01Z</time>
      </trkpt>
      <trkpt lat="42.65866" lon="9.05974">
        <ele>14.557007</ele>
        <time>2011-09-11T14:49:14Z</time>
      </trkpt>
      <trkpt lat="42.65858" lon="9.0598">
        <ele>17.921753</ele>
        <time>2011-09-11T14:49:27Z</time>
      </trkpt>
      <trkpt lat="42.65859" lon="9.05974">
        <ele>18.883057</ele>
        <time>2011-09-11T14:49:34Z</time>
      </trkpt>
      <trkpt lat="42.65855" lon="9.05964">
        <ele>21.286377</ele>
        <time>2011-09-11T14:49:48Z</time>
      </trkpt>
      <trkpt lat="42.65848" lon="9.05962">
        <ele>24.651001</ele>
        <time>2011-09-11T14:50:01Z</time>
      </trkpt>
      <trkpt lat="42.65842" lon="9.05954">
        <ele>27.054321</ele>
        <time>2011-09-11T14:50:14Z</time>
      </trkpt>
      <trkpt lat="42.65838" lon="9.05942">
        <ele>30.418823</ele>
        <time>2011-09-11T14:50:28Z</time>
      </trkpt>
      <trkpt lat="42.65833" lon="9.0593">
        <ele>33.302856</ele>
        <time>2011-09-11T14:50:43Z</time>
      </trkpt>
      <trkpt lat="42.65826" lon="9.05929">
        <ele>35.706055</ele>
        <time>2011-09-11T14:50:53Z</time>
      </trkpt>
      <trkpt lat="42.65831" lon="9.05919">
        <ele>36.186768</ele>
        <time>2011-09-11T14:51:07Z</time>
      </trkpt>
      <trkpt lat="42.65831" lon="9.05918">
        <ele>36.66748</ele>
        <time>2011-09-11T14:51:09Z</time>
      </trkpt>
      <trkpt lat="42.65847" lon="9.05886">
        <ele>36.66748</ele>
        <time>2011-09-11T14:51:32Z</time>
      </trkpt>
      <trkpt lat="42.65869" lon="9.05851">
        <ele>36.66748</ele>
        <time>2011-09-11T14:51:57Z</time>
      </trkpt>
      <trkpt lat="42.65885" lon="9.05821">
        <ele>38.109375</ele>
        <time>2011-09-11T14:52:18Z</time>
      </trkpt>
      <trkpt lat="42.6589" lon="9.05816">
        <ele>38.590088</ele>
        <time>2011-09-11T14:52:23Z</time>
      </trkpt>
      <trkpt lat="42.65893" lon="9.05816">
        <ele>37.628662</ele>
        <time>2011-09-11T14:52:35Z</time>
      </trkpt>
      <trkpt lat="42.65893" lon="9.05815">
        <ele>38.109375</ele>
        <time>2011-09-11T14:52:43Z</time>
      </trkpt>
    </trkseg>
  </trk>
</gpx>